Dr Fridtjof Nansen — LGWS — position and weather

sailwx.info

Track history (hours):
 
Tides and Currents Weather Stations Pressure Air Temp Water Temp Dewpoint Dewpoint Depression Visibility Wind Speed Wind Dir Waves Ship Positions

Oceanographic research ship Dr Fridtjof Nansen (Norway)

Detailed information on ship capabilities available from University of Delaware's Ocean Information Center.

Last reported at 2017-Apr-30 20:30 UTC. Time now 2017-Apr-30 20:33 UTC.
Position N 60°20' E 004°45'.

Length 56.7 m; beam 12.5 m.

Type: Dredging. MMSI: 258523000.

Date/timePositionNaut miles runAvg speedWind from/ knotsBaromVisibWave heightAir tempDewpointWater temp
2017-Apr-30 20:30N 60°20' E 004°45'611.0
2017-Apr-30 20:00N 60°14' E 004°48'41185.6
2017-Apr-30 20:00N 60°12' E 004°42'510.2 160 / 41019.0 7.5 2.4 7.8
2017-Apr-30 19:30N 60°09' E 004°51'510.8
2017-Apr-30 19:01N 60°04' E 004°53'5290.1
2017-Apr-30 19:00N 60°00' E 004°48'4 8.8 200 / 61018.7 7.8 2.3 7.5
2017-Apr-30 18:30N 59°59' E 004°57'5 9.4
2017-Apr-30 18:00N 59°57' E 005°05'4268.6
2017-Apr-30 18:00N 59°54' E 005°00'4 7.2 280 / 21018.6 9.9 0.7 7.4
2017-Apr-30 17:30N 59°57' E 005°05'0 0.0
2017-Apr-30 17:00N 59°57' E 005°05'4412.3
2017-Apr-30 17:00N 59°54' E 005°00'4 7.3 310 / 41018.5 8.3 1.5 7.6
2017-Apr-30 16:31N 59°57' E 005°05'0 0.0
2017-Apr-30 16:00N 59°57' E 005°05'41161.9
2017-Apr-30 16:00N 59°54' E 005°00'4 7.2 240 / 41018.5 8.4 1.3 7.6
2017-Apr-30 15:30N 59°57' E 005°05'0 0.2
2017-Apr-30 15:00N 59°57' E 005°04'3593.6
2017-Apr-30 15:00N 59°54' E 005°00'3 7.1 200 / 41018.3 9.6 1.0 7.7
2017-Apr-30 14:30N 59°57' E 005°04'1019.7
2017-Apr-30 14:00N 59°48' E 004°54'4 9.0 210 / 61018.6 9.0 2.1 7.7
2017-Apr-30 13:30N 59°52' E 004°57'0 0.1
2017-Apr-30 13:00N 59°52' E 004°57'4799.1
2017-Apr-30 13:00N 59°48' E 004°54'4 8.9 210 / 121018.7 8.0 1.7 7.4
2017-Apr-30 12:30N 59°52' E 004°57'0 0.2
2017-Apr-30 12:00N 59°52' E 004°57'41283.7
2017-Apr-30 12:00N 59°48' E 004°54'4 8.5 200 / 81018.8 8.1 1.0 7.5
2017-Apr-30 11:30N 59°52' E 004°57'0 0.2
2017-Apr-30 11:00N 59°52' E 004°57'4460.8
2017-Apr-30 11:00N 59°48' E 004°54'4 8.1 190 / 121019.2 8.1 0.9 7.3
2017-Apr-30 10:30N 59°52' E 004°57'0 0.2
2017-Apr-30 10:00N 59°52' E 004°57'41167.6
2017-Apr-30 10:00N 59°48' E 004°54'4 7.7 160 / 101019.3 8.3-0.0 7.2
2017-Apr-30 09:30N 59°52' E 004°57'1 1.2
2017-Apr-30 09:00N 59°52' E 004°57'4495.0
2017-Apr-30 09:00N 59°48' E 004°54'5 9.6 150 / 121019.6 8.4-1.6 7.2
2017-Apr-30 08:31N 59°52' E 004°57'0 0.1
2017-Apr-30 08:00N 59°52' E 004°57'5394.6
2017-Apr-30 08:00N 59°48' E 004°54'4 9.2 140 / 121019.8 9.2-1.5 7.2
2017-Apr-30 07:30N 59°52' E 004°57'0 0.2
2017-Apr-30 07:00N 59°52' E 004°57'4525.6
2017-Apr-30 07:00N 59°48' E 004°54'4 8.9 120 / 121020.0 7.5-2.1 7.2
2017-Apr-30 06:30N 59°52' E 004°57'0 0.2
2017-Apr-30 06:00N 59°52' E 004°57'47932.5
2017-Apr-30 06:00N 59°48' E 004°54'4 8.6 120 / 141020.0 7.2-2.5 7.0
2017-Apr-30 05:30N 59°52' E 004°57'0 0.6
2017-Apr-30 05:01N 59°52' E 004°57'5270.0
2017-Apr-30 05:00N 59°48' E 004°54'4 8.8 120 / 141020.0 6.5-2.4 6.9
2017-Apr-30 04:30N 59°52' E 004°57'0 0.0
2017-Apr-30 04:00N 59°52' E 004°57'41562.5
2017-Apr-30 04:00N 59°48' E 004°54'4 8.6 120 / 141020.0 6.3-2.0 7.2
2017-Apr-30 03:29N 59°52' E 004°57'0 0.3
2017-Apr-30 03:00N 59°52' E 004°57'0 0.0
2017-Apr-30 02:30N 59°52' E 004°57'4 7.5
2017-Apr-30 02:00N 59°52' E 004°49'3 7.0
2017-Apr-30 01:30N 59°52' E 004°42'1 1.1
2017-Apr-30 01:00N 59°53' E 004°42'1 1.0
2017-Apr-30 00:30N 59°53' E 004°41'1 1.2
2017-Apr-30 00:00N 59°53' E 004°42'1 1.4
2017-Apr-29 23:30N 59°52' E 004°43'0 0.7
2017-Apr-29 23:00N 59°52' E 004°42'0 0.6
2017-Apr-29 22:30N 59°53' E 004°42'0 0.5
2017-Apr-29 22:00N 59°53' E 004°42'0 0.1
2017-Apr-29 21:30N 59°53' E 004°42'0 0.8
2017-Apr-29 21:00N 59°52' E 004°42'0 0.1
2017-Apr-29 20:30N 59°52' E 004°42'0 0.0
2017-Apr-29 20:00N 59°52' E 004°42'0 0.0
2017-Apr-29 19:30N 59°52' E 004°42'0 0.0
2017-Apr-29 19:00N 59°52' E 004°42'0 0.0
2017-Apr-29 18:30N 59°52' E 004°42'3 0.5
2017-Apr-29 11:44N 59°53' E 004°35'2 9.2
2017-Apr-29 11:30N 59°53' E 004°39'2 3.1
2017-Apr-29 11:00N 59°53' E 004°42'0 0.1
2017-Apr-29 10:30N 59°53' E 004°42'0 0.2
2017-Apr-29 10:00N 59°53' E 004°42'0 0.1
2017-Apr-29 09:30N 59°53' E 004°42'0 0.0
2017-Apr-29 09:00N 59°53' E 004°42'0 0.1
2017-Apr-29 08:30N 59°53' E 004°42'0 0.1
2017-Apr-29 08:00N 59°53' E 004°42'0 0.1
2017-Apr-29 07:30N 59°53' E 004°42'0 0.1
2017-Apr-29 07:00N 59°53' E 004°42'0 0.0
2017-Apr-29 06:29N 59°53' E 004°42'1 1.1
2017-Apr-29 06:00N 59°52' E 004°42'0 1.0
2017-Apr-29 05:30N 59°52' E 004°42'1 1.0
2017-Apr-29 05:00N 59°53' E 004°42'1 1.3
2017-Apr-29 04:30N 59°53' E 004°42'0 0.9
2017-Apr-29 04:00N 59°54' E 004°41'1 1.2
2017-Apr-29 03:30N 59°53' E 004°42'1 1.5
2017-Apr-29 03:00N 59°52' E 004°42'5370.2
2017-Apr-29 03:00N 59°48' E 004°36'510.2 120 / 81015.2 7.3 1.6 6.9
2017-Apr-29 02:30N 59°52' E 004°42'0 0.7
2017-Apr-29 02:01N 59°52' E 004°42'4243.9
2017-Apr-29 02:00N 59°48' E 004°42'510.0 100 / 101014.6 7.8-0.6 6.9
2017-Apr-29 01:31N 59°53' E 004°42'1 2.9
2017-Apr-29 01:00N 59°51' E 004°41'5 9.3
2017-Apr-29 00:30N 59°47' E 004°37'612.5
2017-Apr-29 00:00N 59°42' E 004°30'1313.4 090 / 101013.8 7.3 2.0 6.7
2017-Apr-28 23:00N 59°30' E 004°18'0 0.0 070 / 81013.5 7.5 0.3 6.9
2017-Apr-28 22:00N 59°30' E 004°18'6 6.0 080 / 41013.3 7.5 1.9 7.0
2017-Apr-28 21:00N 59°36' E 004°18'6 6.0 070 / 41013.2 7.5 0.8 6.9
2017-Apr-28 20:00N 59°30' E 004°18'3 3.0 060 / 61013.2 7.5 1.9 6.9
2017-Apr-28 19:00N 59°30' E 004°24'6 6.1 060 / 101012.8 8.0 0.1 7.0
2017-Apr-28 18:00N 59°30' E 004°36'0 0.0 060 / 101012.5 8.0-0.2 7.0
2017-Apr-28 17:00N 59°30' E 004°36'0 0.0 1012.2 7.5-0.9 6.9
2017-Apr-28 16:00N 59°30' E 004°36'0 0.0 350 / 121012.2 7.2 0.4 7.2
2017-Apr-28 15:00N 59°30' E 004°36'0 0.0 020 / 141012.3 7.6-1.8 7.2
2017-Apr-28 14:00N 59°30' E 004°36'437.6 020 / 141012.3 7.7-4.4 7.1
2017-Apr-28 13:53N 59°33' E 004°42'410.2
2017-Apr-28 13:31N 59°33' E 004°49'510.1
2017-Apr-28 13:00N 59°33' E 004°59'47723.0
2017-Apr-28 13:00N 59°30' E 004°54'917.8 050 / 161012.1 8.9-5.6 7.6
2017-Apr-28 12:30N 59°34' E 005°09'1 2.1
2017-Apr-28 12:00N 59°34' E 005°11'5581.4
2017-Apr-28 12:00N 59°30' E 005°06'510.3 050 / 101011.9 9.4-8.0 7.3
2017-Apr-28 11:30N 59°34' E 005°11'0 0.2
2017-Apr-28 11:00N 59°34' E 005°11'5440.4
2017-Apr-28 11:00N 59°30' E 005°06'510.2 050 / 141011.8 9.5-9.0 7.3
2017-Apr-28 10:30N 59°34' E 005°11'0 0.1
2017-Apr-28 10:00N 59°34' E 005°11'5884.1
2017-Apr-28 10:00N 59°30' E 005°06'5 9.9 050 / 141012.0 7.5-8.6 7.1
2017-Apr-28 09:30N 59°34' E 005°11'0 0.2
2017-Apr-28 09:00N 59°34' E 005°11'5433.6
2017-Apr-28 09:00N 59°30' E 005°06'5 9.6 060 / 121012.2 7.8-8.1 7.1
2017-Apr-28 08:30N 59°34' E 005°11'0 0.0
2017-Apr-28 08:01N 59°34' E 005°11'5285.5
2017-Apr-28 08:00N 59°30' E 005°06'5 9.6 060 / 121012.2 8.2-6.9 7.1
2017-Apr-28 07:30N 59°34' E 005°11'0 0.0
2017-Apr-28 07:00N 59°34' E 005°11'5778.6
2017-Apr-28 07:00N 59°30' E 005°06'5 9.6 060 / 161012.0 9.0-6.7 7.2
2017-Apr-28 06:30N 59°34' E 005°11'1 1.1
2017-Apr-28 06:00N 59°34' E 005°10'5411.6
2017-Apr-28 06:00N 59°30' E 005°06'4 9.0 050 / 161011.6 6.2-6.9 6.9
2017-Apr-28 05:30N 59°34' E 005°11'1 2.2
2017-Apr-28 05:00N 59°33' E 005°13'3258.7
2017-Apr-28 05:00N 59°30' E 005°12'3 6.7 020 / 121011.2 4.9-2.4 7.2
2017-Apr-28 04:30N 59°33' E 005°13'2 3.1
2017-Apr-28 04:00N 59°33' E 005°10'4641.9
2017-Apr-28 04:00N 59°30' E 005°06'4 7.9 100 / 81010.7 4.5-1.6 7.1
2017-Apr-28 03:30N 59°33' E 005°10'0 0.0
2017-Apr-28 03:00N 59°33' E 005°10'41177.1
2017-Apr-28 03:00N 59°30' E 005°06'4 8.0 100 / 161010.2 4.3-1.7 7.1
2017-Apr-28 02:30N 59°33' E 005°10'2 4.1
2017-Apr-28 02:00N 59°34' E 005°14'4759.1
2017-Apr-28 02:00N 59°30' E 005°12'4 9.0 080 / 191010.0 4.2-1.8 7.0
2017-Apr-28 01:30N 59°34' E 005°14'2 3.2
2017-Apr-28 01:00N 59°34' E 005°11'4396.3
2017-Apr-28 01:00N 59°30' E 005°06'4 9.0 070 / 101009.2 4.6-0.3 7.0
2017-Apr-28 00:30N 59°34' E 005°11'0 0.0
2017-Apr-28 00:00N 59°34' E 005°11'48080.9
2017-Apr-28 00:00N 59°30' E 005°06'4 9.0 020 / 81008.6 6.0 0.7 7.2
2017-Apr-27 23:30N 59°34' E 005°11'1 1.4
2017-Apr-27 23:00N 59°34' E 005°13'4321.2
2017-Apr-27 23:00N 59°30' E 005°12'4 8.1 330 / 61008.5 5.5 1.1 7.1
2017-Apr-27 22:30N 59°34' E 005°13'0 0.2
2017-Apr-27 22:00N 59°34' E 005°13'414926.3
2017-Apr-27 22:00N 59°30' E 005°12'4 7.5 320 / 121008.2 6.3 1.6 7.2
2017-Apr-27 21:31N 59°34' E 005°11'0 0.0
2017-Apr-27 21:01N 59°34' E 005°11'4263.7
2017-Apr-27 21:00N 59°30' E 005°06'611.7 330 / 81008.5 6.2 2.1 7.1
2017-Apr-27 20:30N 59°34' E 005°13'510.5
2017-Apr-27 20:00N 59°39' E 005°19'3237.1
2017-Apr-27 20:00N 59°36' E 005°18'815.6 300 / 81008.2 6.5 2.2 7.2
2017-Apr-27 19:30N 59°43' E 005°24'510.2
2017-Apr-27 19:00N 59°48' E 005°19'510.2
2017-Apr-27 18:30N 59°52' E 005°14'5 9.8
2017-Apr-27 18:00N 59°56' E 005°10'3550.2
2017-Apr-27 18:00N 59°54' E 005°06'715.1 310 / 121008.0 8.4 1.5 7.3
2017-Apr-27 17:30N 60°01' E 005°12'5 9.3
2017-Apr-27 17:01N 60°05' E 005°11'6339.9
2017-Apr-27 17:00N 60°00' E 005°06'1020.3 020 / 21007.7 7.9-0.3 7.0
2017-Apr-27 16:30N 60°10' E 005°09'4 7.6
2017-Apr-27 16:00N 60°08' E 005°02'3457.8
2017-Apr-27 16:00N 60°06' E 005°00'3 5.5 340 / 231007.5 7.0 1.9 7.0
2017-Apr-27 15:30N 60°08' E 005°02'0 0.0
2017-Apr-27 15:00N 60°08' E 005°02'3480.8
2017-Apr-27 15:00N 60°06' E 005°00'3 2.7 340 / 211007.7 6.6 1.9 7.2
2017-Apr-27 14:01N 60°08' E 005°02'3157.6
2017-Apr-27 14:00N 60°06' E 005°00'3 5.3 330 / 191007.6 6.5 1.8 7.1
2017-Apr-27 13:29N 60°08' E 005°02'0 0.1
2017-Apr-27 13:00N 60°08' E 005°02'3303.2
2017-Apr-27 13:00N 60°06' E 005°00'5 9.9 290 / 171007.5 6.1 1.2 6.9
2017-Apr-27 12:30N 60°09' E 005°08'0 0.2
2017-Apr-27 12:00N 60°09' E 005°08'3550.5
2017-Apr-27 12:00N 60°06' E 005°06'3 6.5 040 / 21007.3 6.0 1.0 6.9
2017-Apr-27 11:30N 60°09' E 005°08'0 0.0
2017-Apr-27 11:01N 60°09' E 005°08'3192.9
2017-Apr-27 11:00N 60°06' E 005°06'3 6.5 050 / 41007.0 5.4 0.3 6.9
2017-Apr-27 10:30N 60°09' E 005°08'0 0.0
2017-Apr-27 10:00N 60°09' E 005°08'31157.7
2017-Apr-27 10:00N 60°06' E 005°06'3 6.4 070 / 101006.7 4.7 0.3 6.7
2017-Apr-27 09:30N 60°09' E 005°08'0 0.0
2017-Apr-27 09:00N 60°09' E 005°08'311578.4
2017-Apr-27 09:00N 60°06' E 005°06'3 6.6 080 / 121006.2 4.4 0.9 6.8
2017-Apr-27 08:30N 60°09' E 005°08'0 0.6
2017-Apr-27 08:00N 60°09' E 005°07'3278.0
2017-Apr-27 08:00N 60°06' E 005°06'5 9.7 110 / 141005.5 3.7 0.9 6.6
2017-Apr-27 07:30N 60°08' E 004°58'4 8.6
2017-Apr-27 07:00N 60°07' E 004°49'1103.7
2017-Apr-27 07:00N 60°06' E 004°48'1 3.0 130 / 191004.3 3.3 1.2 6.3
2017-Apr-27 06:30N 60°07' E 004°49'0 0.0
2017-Apr-27 06:00N 60°07' E 004°49'1105.7
2017-Apr-27 06:00N 60°06' E 004°48'1 3.0 140 / 231003.7 3.1 1.4 6.3
2017-Apr-27 05:30N 60°07' E 004°49'0 0.0
2017-Apr-27 05:00N 60°07' E 004°49'1134.8
2017-Apr-27 05:00N 60°06' E 004°48'1 3.0 140 / 251003.6 2.9 1.3 6.4
2017-Apr-27 04:30N 60°07' E 004°49'0 0.0
2017-Apr-27 04:01N 60°07' E 004°49'186.9
2017-Apr-27 04:00N 60°06' E 004°48'2 3.2 150 / 251003.2 2.7 1.3 6.4
2017-Apr-27 03:30N 60°08' E 004°49'1 1.2
2017-Apr-27 03:00N 60°08' E 004°48'2137.5
2017-Apr-27 03:00N 60°06' E 004°48'2 4.6 160 / 291003.1 2.5 1.0 6.5
2017-Apr-27 02:30N 60°08' E 004°49'2 3.5
2017-Apr-27 02:00N 60°07' E 004°49'1304.7
2017-Apr-27 02:00N 60°06' E 004°48'3 6.6 170 / 231004.0 3.7 1.1 6.5
2017-Apr-27 01:30N 60°03' E 004°50'1 3.0
2017-Apr-27 01:00N 60°04' E 004°51'51406.6
2017-Apr-27 01:00N 60°00' E 004°48'612.4 180 / 251004.7 3.1 0.9 6.4
2017-Apr-27 00:30N 60°06' E 004°52'1 3.0
2017-Apr-27 00:00N 60°07' E 004°52'3182.6
2017-Apr-27 00:00N 60°06' E 004°48'3 5.5 190 / 211005.7 2.8 0.8 6.7
2017-Apr-26 23:30N 60°08' E 004°52'0 0.0
2017-Apr-26 23:01N 60°08' E 004°52'3166.0
2017-Apr-26 23:00N 60°06' E 004°48'4 9.3 200 / 171007.0 2.6 0.3 6.7
2017-Apr-26 22:30N 60°08' E 004°56'0 0.0
2017-Apr-26 22:00N 60°08' E 004°56'2267.2
2017-Apr-26 22:00N 60°06' E 004°54'4 7.7 240 / 141008.1 2.6-0.0 6.8
2017-Apr-26 21:30N 60°08' E 005°00'0 0.0
2017-Apr-26 21:00N 60°08' E 005°00'2868.3
2017-Apr-26 21:00N 60°06' E 005°00'2 4.8 270 / 141009.0 3.9-0.4 7.0
2017-Apr-26 20:30N 60°08' E 005°00'0 0.2
2017-Apr-26 20:01N 60°08' E 005°00'2144.5
2017-Apr-26 20:00N 60°06' E 005°00'4 8.8 300 / 101009.5 5.0-1.9 6.8
2017-Apr-26 19:30N 60°09' E 005°06'0 0.0
2017-Apr-26 19:00N 60°09' E 005°06'4309.3
2017-Apr-26 19:00N 60°06' E 005°00'4 8.6 320 / 101010.2 4.9-1.6 7.0
2017-Apr-26 18:30N 60°09' E 005°06'2 3.2
2017-Apr-26 18:00N 60°10' E 005°09'4667.1
2017-Apr-26 18:00N 60°06' E 005°06'4 8.6 330 / 141010.6 5.2-2.4 6.9
2017-Apr-26 17:30N 60°10' E 005°10'0 0.0
2017-Apr-26 17:01N 60°10' E 005°10'4256.0
2017-Apr-26 17:00N 60°06' E 005°06'4 8.8 320 / 161010.7 5.5-4.9 6.9
2017-Apr-26 16:31N 60°10' E 005°10'0 0.0
2017-Apr-26 16:01N 60°10' E 005°10'4251.9
2017-Apr-26 16:00N 60°06' E 005°06'4 8.8 320 / 191011.0 6.0-4.8 6.9
2017-Apr-26 15:31N 60°10' E 005°10'0 0.0
2017-Apr-26 15:00N 60°10' E 005°10'4374.8
2017-Apr-26 15:00N 60°06' E 005°06'4 8.7 320 / 191010.8 6.4-2.8 6.7
2017-Apr-26 14:30N 60°10' E 005°10'4 8.4
2017-Apr-26 14:00N 60°06' E 005°06'611.7 330 / 191010.8 6.8-2.3 6.8
2017-Apr-26 13:30N 60°11' E 005°12'0 0.0
2017-Apr-26 13:00N 60°11' E 005°12'6653.8
2017-Apr-26 13:00N 60°06' E 005°06'611.7 340 / 171011.1 6.0-1.7 6.8
2017-Apr-26 12:30N 60°11' E 005°12'0 0.0
2017-Apr-26 12:00N 60°11' E 005°12'61900.5
2017-Apr-26 12:00N 60°06' E 005°06'611.6 360 / 191011.0 6.0-3.7 6.6
2017-Apr-26 11:31N 60°11' E 005°11'1 1.7
2017-Apr-26 11:00N 60°12' E 005°11'61055.1
2017-Apr-26 11:00N 60°06' E 005°06'1122.2 340 / 191011.1 6.7-3.4 7.4
2017-Apr-26 10:30N 60°17' E 005°09'510.2
2017-Apr-26 10:00N 60°22' E 005°10'4313.0
2017-Apr-26 10:00N 60°18' E 005°06'817.0 330 / 171011.1 5.5-0.8 6.9
2017-Apr-26 09:30N 60°24' E 005°18'1 1.5
2017-Apr-26 09:00N 60°24' E 005°19'6965.6
2017-Apr-26 09:00N 60°18' E 005°18'611.1 330 / 121010.7 5.2-3.0 6.8
2017-Apr-26 08:28N 60°24' E 005°19'612.6
2017-Apr-26 08:00N 60°18' E 005°18'6189.7 330 / 141010.8 4.6-2.7 6.8
2017-Apr-26 07:58N 60°24' E 005°19'0 0.0
2017-Apr-26 07:28N 60°24' E 005°19'612.6
2017-Apr-26 07:00N 60°18' E 005°18'6186.4 330 / 141010.7 4.2-2.0 6.7
2017-Apr-26 06:58N 60°24' E 005°19'0 0.0
2017-Apr-26 06:28N 60°24' E 005°19'612.6
2017-Apr-26 06:00N 60°18' E 005°18'6184.7 320 / 101010.7 4.0-1.9 6.8
2017-Apr-26 05:58N 60°24' E 005°19'0 0.0
2017-Apr-26 05:28N 60°24' E 005°19'612.6
2017-Apr-26 05:00N 60°18' E 005°18'6181.6 320 / 101010.2 3.7-1.7 6.9
2017-Apr-26 04:58N 60°24' E 005°19'0 0.0
2017-Apr-26 04:25N 60°24' E 005°19'614.1
2017-Apr-26 04:00N 60°18' E 005°18'6180.0 310 / 101010.0 3.5-2.1 6.9
2017-Apr-26 03:58N 60°24' E 005°19'0 0.0
2017-Apr-26 03:31N 60°24' E 005°19'0 0.0
2017-Apr-26 03:01N 60°24' E 005°19'6348.3
2017-Apr-26 03:00N 60°18' E 005°18'612.2 320 / 81009.3 3.8-3.5 6.9
2017-Apr-26 02:30N 60°24' E 005°19'0 0.0
2017-Apr-26 02:00N 60°24' E 005°19'6360.1
2017-Apr-26 02:00N 60°18' E 005°18'612.2 330 / 81008.8 3.8-3.2 7.0
2017-Apr-26 01:30N 60°24' E 005°19'0 0.0
2017-Apr-26 01:00N 60°24' E 005°19'6372.7
2017-Apr-26 01:00N 60°18' E 005°18'612.2 330 / 81008.5 4.3-4.4 6.9
2017-Apr-26 00:30N 60°24' E 005°19'0 0.0
2017-Apr-26 00:00N 60°24' E 005°19'6386.3
2017-Apr-26 00:00N 60°18' E 005°18'612.2 330 / 81008.3 4.6-3.6 7.1
2017-Apr-25 23:30N 60°24' E 005°19'0 0.0
2017-Apr-25 23:00N 60°24' E 005°19'6393.4
2017-Apr-25 23:00N 60°18' E 005°18'612.2 300 / 101008.0 4.9-2.7 7.1
2017-Apr-25 22:30N 60°24' E 005°19'0 0.0
2017-Apr-25 22:00N 60°24' E 005°19'6408.5
2017-Apr-25 22:00N 60°18' E 005°18'612.1 330 / 101007.6 5.2-2.6 7.1
2017-Apr-25 21:30N 60°24' E 005°19'0 0.0
2017-Apr-25 21:00N 60°24' E 005°19'6424.9
2017-Apr-25 21:00N 60°18' E 005°18'612.1 330 / 101007.2 5.5-2.1 7.1
2017-Apr-25 20:30N 60°24' E 005°19'0 0.0
2017-Apr-25 20:00N 60°24' E 005°19'6433.5
2017-Apr-25 20:00N 60°18' E 005°18'612.1 330 / 121006.7 6.0-1.5 7.1
2017-Apr-25 19:30N 60°24' E 005°19'0 0.0
2017-Apr-25 19:00N 60°24' E 005°19'0 0.0
2017-Apr-25 18:30N 60°24' E 005°19'0 0.0
2017-Apr-25 18:00N 60°24' E 005°19'6472.1
2017-Apr-25 18:00N 60°18' E 005°18'612.1 330 / 161005.3 7.6-2.0 7.1
2017-Apr-25 17:30N 60°24' E 005°19'0 0.0
2017-Apr-25 17:00N 60°24' E 005°19'6482.8
2017-Apr-25 17:00N 60°18' E 005°18'612.1 330 / 141005.2 8.0-1.9 7.1
2017-Apr-25 16:30N 60°24' E 005°19'0 0.0
2017-Apr-25 16:00N 60°24' E 005°19'6505.8
2017-Apr-25 16:00N 60°18' E 005°18'612.1 340 / 121004.9 8.6-9.5 7.1
2017-Apr-25 15:30N 60°24' E 005°19'0 0.0
2017-Apr-25 15:00N 60°24' E 005°19'6531.1
2017-Apr-25 15:00N 60°18' E 005°18'6 6.0 010 / 141004.7 8.5-8.5 7.1
2017-Apr-25 14:00N 60°24' E 005°19'6544.7
2017-Apr-25 14:00N 60°18' E 005°18'612.1 360 / 121004.2 8.1-8.4 7.0
2017-Apr-25 13:30N 60°24' E 005°19'611.6
2017-Apr-25 13:00N 60°18' E 005°18'6148.6 300 / 141004.1 7.7-8.0 6.9
2017-Apr-25 12:57N 60°24' E 005°19'0 0.0
2017-Apr-25 12:30N 60°24' E 005°19'0 0.0
2017-Apr-25 12:00N 60°24' E 005°19'6607.0
2017-Apr-25 12:00N 60°18' E 005°18'612.0 340 / 101003.5 7.5-8.2 7.0
2017-Apr-25 11:30N 60°24' E 005°19'0 0.0
2017-Apr-25 11:00N 60°24' E 005°19'6624.8
2017-Apr-25 11:00N 60°18' E 005°18'612.0 330 / 101003.2 6.9-7.8 7.0
2017-Apr-25 10:30N 60°24' E 005°19'0 0.0
2017-Apr-25 10:00N 60°24' E 005°19'6643.8
2017-Apr-25 10:00N 60°18' E 005°18'612.0 320 / 101002.8 6.0-7.9 7.0
2017-Apr-25 09:30N 60°24' E 005°19'0 0.0
2017-Apr-25 09:00N 60°24' E 005°19'6685.3
2017-Apr-25 09:00N 60°18' E 005°18'612.0 300 / 81002.5 4.7-6.6 6.9
2017-Apr-25 08:30N 60°24' E 005°19'0 0.1
2017-Apr-25 08:00N 60°24' E 005°19'6729.8
2017-Apr-25 08:00N 60°18' E 005°18'611.9 090 / 81002.0 4.2-7.3 6.4
2017-Apr-25 07:30N 60°24' E 005°19'0 0.0
2017-Apr-25 07:00N 60°24' E 005°19'6755.9
2017-Apr-25 07:00N 60°18' E 005°18'611.9 1001.5 3.8-6.9 6.5
2017-Apr-25 06:30N 60°24' E 005°19'0 0.0
2017-Apr-25 06:00N 60°24' E 005°19'6814.0
2017-Apr-25 06:00N 60°18' E 005°18'611.9 310 / 81001.2 2.8-5.7 6.5
2017-Apr-25 05:30N 60°24' E 005°19'611.6
2017-Apr-25 05:00N 60°18' E 005°18'6135.7 310 / 61000.6 2.5-5.7 6.6
2017-Apr-25 04:57N 60°24' E 005°19'0 0.0
2017-Apr-25 04:27N 60°24' E 005°19'0 0.0
2017-Apr-25 04:00N 60°24' E 005°19'6919.3
2017-Apr-25 04:00N 60°18' E 005°18'611.9 320 / 81000.3 2.9-5.6 6.9
2017-Apr-25 03:30N 60°24' E 005°19'0 0.0
2017-Apr-25 03:00N 60°24' E 005°19'61007.9
2017-Apr-25 03:00N 60°18' E 005°18'611.9 090 / 81000.0 2.9-6.5 6.9
2017-Apr-25 02:30N 60°24' E 005°19'0 0.0
2017-Apr-25 02:00N 60°24' E 005°19'61058.2
2017-Apr-25 02:00N 60°18' E 005°18'611.9 080 / 4999.7 2.6-6.1 7.0
2017-Apr-25 01:30N 60°24' E 005°19'0 0.0
2017-Apr-25 01:00N 60°24' E 005°19'61175.8
2017-Apr-25 01:00N 60°18' E 005°18'611.9 220 / 2999.7 2.3-5.3 6.9
2017-Apr-25 00:30N 60°24' E 005°19'0 0.0
2017-Apr-25 00:00N 60°24' E 005°19'61322.8
2017-Apr-25 00:00N 60°18' E 005°18'611.8 010 / 6999.8 2.7-4.2 6.9
2017-Apr-24 23:30N 60°24' E 005°19'0 0.0
2017-Apr-24 23:00N 60°24' E 005°19'61511.7
2017-Apr-24 23:00N 60°18' E 005°18'611.8 310 / 4999.8 2.7-4.0 6.9
2017-Apr-24 22:30N 60°24' E 005°19'0 0.0
2017-Apr-24 22:00N 60°24' E 005°19'61628.1
2017-Apr-24 22:00N 60°18' E 005°18'611.8 310 / 61000.1 2.7-3.4 6.8
2017-Apr-24 21:30N 60°24' E 005°19'0 0.0
2017-Apr-24 21:00N 60°24' E 005°19'61924.1
2017-Apr-24 21:00N 60°18' E 005°18'611.8 310 / 61000.2 3.2-3.2 6.9
2017-Apr-24 20:30N 60°24' E 005°19'0 0.0
2017-Apr-24 20:00N 60°24' E 005°19'62349.2
2017-Apr-24 20:00N 60°18' E 005°18'611.8 310 / 81000.2 3.7-3.8 6.9
2017-Apr-24 19:30N 60°24' E 005°19'0 0.0
2017-Apr-24 19:00N 60°24' E 005°19'62645.6
2017-Apr-24 19:00N 60°18' E 005°18'611.8 310 / 121000.2 4.0-3.9 6.9
2017-Apr-24 18:30N 60°24' E 005°19'0 0.0
2017-Apr-24 18:00N 60°24' E 005°19'63523.8
2017-Apr-24 18:00N 60°18' E 005°18'611.8 320 / 161000.6 4.5-4.5 6.9
2017-Apr-24 17:30N 60°24' E 005°19'0 0.0
2017-Apr-24 17:00N 60°24' E 005°19'65291.2
2017-Apr-24 17:00N 60°18' E 005°18'611.8 320 / 141000.3 5.0-2.4 6.8
2017-Apr-24 16:30N 60°24' E 005°19'0 0.0
2017-Apr-24 16:00N 60°24' E 005°19'67047.8
2017-Apr-24 16:00N 60°18' E 005°18'611.8 320 / 141000.6 4.6-4.7 6.7
2017-Apr-24 15:30N 60°24' E 005°19'0 0.0
2017-Apr-24 15:00N 60°24' E 005°19'610571.5
2017-Apr-24 15:00N 60°18' E 005°18'612.1 310 / 141000.7 4.6-4.2 6.8
2017-Apr-24 14:30N 60°24' E 005°19'611.4
2017-Apr-24 14:00N 60°18' E 005°18'612.1 320 / 161001.0 4.4-5.0 6.7
2017-Apr-24 13:30N 60°24' E 005°19'0 0.0
2017-Apr-24 13:00N 60°24' E 005°19'0 0.1
2017-Apr-24 12:30N 60°24' E 005°19'4 7.3
2017-Apr-24 12:00N 60°23' E 005°12'4 8.2
2017-Apr-24 11:30N 60°19' E 005°12'5 9.6
2017-Apr-24 11:00N 60°14' E 005°09'510.0
2017-Apr-24 10:30N 60°10' E 005°15'510.3
2017-Apr-24 10:00N 60°07' E 005°22'4 8.7
2017-Apr-24 09:30N 60°04' E 005°28'1 2.8
2017-Apr-24 09:00N 60°02' E 005°28'0 0.0
2017-Apr-24 08:30N 60°02' E 005°28'1 2.5
2017-Apr-24 08:00N 60°03' E 005°28'4 8.1
2017-Apr-24 07:30N 60°06' E 005°22'3 5.5
2017-Apr-24 07:00N 60°05' E 005°16'0 0.0
2017-Apr-24 06:30N 60°05' E 005°16'3 5.7
2017-Apr-24 06:00N 60°03' E 005°19'5 9.7
2017-Apr-24 05:30N 59°58' E 005°23'510.1
2017-Apr-24 05:00N 59°55' E 005°30'2 3.7
2017-Apr-24 04:31N 59°53' E 005°32'1 1.6
2017-Apr-24 04:00N 59°53' E 005°32'3 5.6
2017-Apr-24 03:30N 59°50' E 005°33'1 2.9
2017-Apr-24 03:00N 59°48' E 005°34'1 2.5
2017-Apr-24 02:30N 59°47' E 005°34'2 4.1
2017-Apr-24 02:00N 59°45' E 005°33'2 4.3
2017-Apr-24 01:30N 59°44' E 005°30'2 4.2
2017-Apr-24 01:00N 59°42' E 005°27'2 4.1
2017-Apr-24 00:30N 59°41' E 005°24'2 4.3
2017-Apr-24 00:00N 59°39' E 005°21'2 4.4
2017-Apr-23 23:29N 59°37' E 005°18'2 4.5
2017-Apr-23 23:00N 59°36' E 005°16'3 6.0
2017-Apr-23 22:30N 59°33' E 005°11'0 0.1
2017-Apr-23 22:00N 59°33' E 005°11'0 0.0
2017-Apr-23 21:30N 59°33' E 005°11'0 0.0
2017-Apr-23 21:00N 59°33' E 005°11'2 3.9
2017-Apr-23 20:31N 59°35' E 005°14'611.6
2017-Apr-23 20:00N 59°40' E 005°20'611.3
2017-Apr-23 19:30N 59°43' E 005°29'510.7
2017-Apr-23 19:00N 59°48' E 005°34'1 2.8
2017-Apr-23 18:30N 59°50' E 005°33'0 0.6
2017-Apr-23 18:00N 59°50' E 005°33'0 0.1
2017-Apr-23 17:30N 59°50' E 005°33'0 0.0
2017-Apr-23 17:00N 59°50' E 005°33'2183.1
2017-Apr-23 17:00N 59°48' E 005°30'2 5.2 190 / 141011.5 3.7 0.4 7.0
2017-Apr-23 16:30N 59°50' E 005°33'0 0.0
2017-Apr-23 16:00N 59°50' E 005°33'2183.1
2017-Apr-23 16:00N 59°48' E 005°30'2 5.1 200 / 121012.5 4.2 0.2 6.9
2017-Apr-23 15:30N 59°50' E 005°33'0 0.0
2017-Apr-23 15:00N 59°50' E 005°33'2996.7
2017-Apr-23 15:00N 59°48' E 005°30'2 2.5 230 / 81013.6 2.0-0.1 6.8
2017-Apr-23 14:00N 59°50' E 005°33'2494.5
2017-Apr-23 14:00N 59°48' E 005°30'2 5.1 240 / 121014.2 3.1-0.4 6.9
2017-Apr-23 13:31N 59°50' E 005°33'0 0.0
2017-Apr-23 13:00N 59°50' E 005°33'2 3.3
2017-Apr-23 12:30N 59°51' E 005°32'2 3.9
2017-Apr-23 12:00N 59°53' E 005°32'5675.1
2017-Apr-23 12:00N 59°48' E 005°30'510.9 310 / 101015.6 3.6-1.0 7.0
2017-Apr-23 11:30N 59°53' E 005°32'510.9
2017-Apr-23 11:00N 59°48' E 005°30'59788.2 320 / 41015.7 3.0-0.5 7.0
2017-Apr-23 10:59N 59°53' E 005°32'0 0.0
2017-Apr-23 10:30N 59°53' E 005°32'0 0.0
2017-Apr-23 10:00N 59°53' E 005°32'5978.8
2017-Apr-23 10:00N 59°48' E 005°30'611.3 320 / 81016.3 1.2-0.7 7.0
2017-Apr-23 09:30N 59°53' E 005°32'0 0.1
2017-Apr-23 09:00N 59°53' E 005°32'6410.9
2017-Apr-23 09:00N 59°48' E 005°30'611.5 340 / 121016.2 3.7-1.7 7.0
2017-Apr-23 08:30N 59°53' E 005°32'0 0.0
2017-Apr-23 08:00N 59°53' E 005°32'6694.2
2017-Apr-23 08:00N 59°48' E 005°30'511.3 340 / 161016.1 2.3-1.1 6.9
2017-Apr-23 07:30N 59°53' E 005°32'510.6
2017-Apr-23 07:00N 59°48' E 005°30'519746.8 330 / 141015.8 3.2-0.8 7.0
2017-Apr-23 06:59N 59°53' E 005°32'0 0.0
2017-Apr-23 06:31N 59°53' E 005°32'0 0.0
2017-Apr-23 06:00N 59°53' E 005°32'5411.4
2017-Apr-23 06:00N 59°48' E 005°30'511.0 110 / 101016.4 1.5-1.7 6.9
2017-Apr-23 05:30N 59°53' E 005°32'1 1.9
2017-Apr-23 05:00N 59°52' E 005°32'4535.0
2017-Apr-23 05:00N 59°48' E 005°30'3 5.6 060 / 41016.2 1.8-1.6 6.8
2017-Apr-23 04:30N 59°50' E 005°33'3 5.7
2017-Apr-23 04:00N 59°48' E 005°34'6366.6
2017-Apr-23 04:00N 59°42' E 005°30'4 8.2 320 / 101016.4 2.2-1.8 6.8
2017-Apr-23 03:30N 59°45' E 005°35'0 0.0
2017-Apr-23 03:00N 59°45' E 005°35'4246.0
2017-Apr-23 03:00N 59°42' E 005°30'4 8.2 340 / 161016.7 2.3-1.8 6.9
2017-Apr-23 02:30N 59°45' E 005°35'0 0.0
2017-Apr-23 02:00N 59°45' E 005°35'4475.6
2017-Apr-23 02:00N 59°42' E 005°30'2 4.3 340 / 161016.6 2.2-1.4 6.9
2017-Apr-23 01:30N 59°44' E 005°30'5 9.3
2017-Apr-23 01:00N 59°41' E 005°23'62483.1
2017-Apr-23 01:00N 59°36' E 005°18'1 2.4 350 / 101017.1 1.3-0.9 6.8
2017-Apr-23 00:30N 59°37' E 005°17'1 2.1
2017-Apr-23 00:00N 59°36' E 005°16'2160.7
2017-Apr-23 00:00N 59°36' E 005°12'2 4.4 330 / 211017.6 1.1-1.5 6.9
2017-Apr-22 23:30N 59°36' E 005°16'0 0.0
2017-Apr-22 23:00N 59°36' E 005°16'2262.7
2017-Apr-22 23:00N 59°36' E 005°12'2 4.5 340 / 171017.7 3.1-1.5 7.0
2017-Apr-22 22:30N 59°36' E 005°16'3 6.8
2017-Apr-22 22:00N 59°34' E 005°12'5354.6
2017-Apr-22 22:00N 59°30' E 005°06'714.3 330 / 251017.1 4.5-1.7 7.1
2017-Apr-22 21:30N 59°35' E 005°15'510.1
2017-Apr-22 21:00N 59°39' E 005°21'4345.1
2017-Apr-22 21:00N 59°36' E 005°18'918.1 320 / 161017.2 4.5-1.7 7.0
2017-Apr-22 20:30N 59°43' E 005°28'510.2
2017-Apr-22 20:00N 59°48' E 005°33'6727.3
2017-Apr-22 20:00N 59°42' E 005°30'1121.7 330 / 171016.7 3.9-0.3 7.0
2017-Apr-22 19:30N 59°53' E 005°32'4 8.9
2017-Apr-22 19:00N 59°56' E 005°28'3195.5
2017-Apr-22 19:00N 59°54' E 005°24'3 6.4 320 / 191016.8 3.2 0.2 6.8
2017-Apr-22 18:29N 59°56' E 005°28'0 0.0
2017-Apr-22 18:00N 59°56' E 005°28'3195.6
2017-Apr-22 18:00N 59°54' E 005°24'3 6.5 320 / 211016.3 4.4 0.9 7.0
2017-Apr-22 17:30N 59°56' E 005°28'0 0.0
2017-Apr-22 17:00N 59°56' E 005°28'3397.9
2017-Apr-22 17:00N 59°54' E 005°24'3 6.4 310 / 171016.4 4.9 0.2 7.0
2017-Apr-22 16:30N 59°56' E 005°28'0 0.0
2017-Apr-22 15:59N 59°56' E 005°28'0 0.0
2017-Apr-22 15:29N 59°56' E 005°28'0 0.0
2017-Apr-22 15:00N 59°56' E 005°28'3412.3
2017-Apr-22 15:00N 59°54' E 005°24'3 6.5 310 / 161016.2 5.5 0.5 7.0
2017-Apr-22 14:30N 59°56' E 005°28'3 6.4
2017-Apr-22 14:00N 59°54' E 005°24'5 9.7 320 / 211016.1 6.2 0.1 6.9
2017-Apr-22 13:30N 59°52' E 005°33'2 4.0
2017-Apr-22 13:00N 59°50' E 005°33'2465.5
2017-Apr-22 13:00N 59°48' E 005°30'2 5.1 020 / 81016.5 6.3-0.6 7.0
2017-Apr-22 12:30N 59°50' E 005°33'0 0.0
2017-Apr-22 12:00N 59°50' E 005°33'2983.0
2017-Apr-22 12:00N 59°48' E 005°30'2 5.1 360 / 161017.0 4.2 0.2 6.9
2017-Apr-22 11:30N 59°50' E 005°33'0 0.0
2017-Apr-22 11:00N 59°50' E 005°33'2491.5
2017-Apr-22 11:00N 59°48' E 005°30'2 5.1 010 / 81016.5 5.5-0.6 6.8
2017-Apr-22 10:30N 59°50' E 005°33'0 0.0
2017-Apr-22 10:00N 59°50' E 005°33'2152.5
2017-Apr-22 10:00N 59°48' E 005°30'2 5.0 350 / 161016.3 6.5-2.1 6.9
2017-Apr-22 09:30N 59°50' E 005°33'0 0.0
2017-Apr-22 09:00N 59°50' E 005°33'2316.0
2017-Apr-22 09:00N 59°48' E 005°30'2 4.0 360 / 101016.2 6.5-0.7 6.9
2017-Apr-22 08:30N 59°47' E 005°34'2 3.3
2017-Apr-22 08:00N 59°47' E 005°30'52184.8
2017-Apr-22 08:00N 59°42' E 005°30'5 9.9 250 / 61016.0 8.0-2.1 7.0
2017-Apr-22 07:30N 59°47' E 005°30'0 0.0
2017-Apr-22 07:00N 59°47' E 005°30'5350.0
2017-Apr-22 07:00N 59°42' E 005°30'5 9.9 060 / 41015.7 7.2-1.5 6.9
2017-Apr-22 06:30N 59°47' E 005°30'0 0.0
2017-Apr-22 06:00N 59°47' E 005°30'5921.0
2017-Apr-22 06:00N 59°42' E 005°30'510.0 220 / 41015.1 6.4-0.7 6.8
2017-Apr-22 05:30N 59°47' E 005°30'0 0.0
2017-Apr-22 05:00N 59°47' E 005°30'5448.7
2017-Apr-22 05:00N 59°42' E 005°30'5 9.9 290 / 41014.5 4.9-0.3 6.9
2017-Apr-22 04:30N 59°47' E 005°30'0 0.0
2017-Apr-22 04:00N 59°47' E 005°30'0 0.0
2017-Apr-22 03:30N 59°47' E 005°30'0 0.0
2017-Apr-22 03:01N 59°47' E 005°30'5291.7
2017-Apr-22 03:00N 59°42' E 005°30'5 9.8 190 / 21012.6 4.0 1.4 6.9
2017-Apr-22 02:30N 59°47' E 005°30'0 0.0
2017-Apr-22 02:00N 59°47' E 005°30'5459.9
2017-Apr-22 02:00N 59°42' E 005°30'5 9.9 260 / 41012.7 4.2 1.0 6.9
2017-Apr-22 01:30N 59°47' E 005°30'0 0.0
2017-Apr-22 01:00N 59°47' E 005°30'52184.7
2017-Apr-22 01:00N 59°42' E 005°30'5 9.8 270 / 61013.1 4.7 1.1 7.0
2017-Apr-22 00:30N 59°47' E 005°30'0 0.0
2017-Apr-22 00:01N 59°47' E 005°30'5291.7
2017-Apr-22 00:00N 59°42' E 005°30'510.1 250 / 41013.5 5.0 0.9 6.9
2017-Apr-21 23:31N 59°47' E 005°30'0 0.0
2017-Apr-21 23:00N 59°47' E 005°30'5919.9
2017-Apr-21 23:00N 59°42' E 005°30'5 9.8 260 / 61013.7 3.6 0.5 6.8
2017-Apr-21 22:30N 59°47' E 005°30'0 0.0
2017-Apr-21 22:00N 59°47' E 005°30'5448.7
2017-Apr-21 22:00N 59°42' E 005°30'510.0 250 / 41013.8 2.7 0.2 6.9
2017-Apr-21 21:30N 59°47' E 005°30'0 0.0
2017-Apr-21 21:00N 59°47' E 005°30'51750.0
2017-Apr-21 21:00N 59°42' E 005°30'5 9.7 260 / 21014.3 3.3-0.6 6.9
2017-Apr-21 20:30N 59°47' E 005°30'0 0.0
2017-Apr-21 20:00N 59°47' E 005°30'5357.1
2017-Apr-21 20:00N 59°42' E 005°30'510.0 250 / 21014.3 3.6-1.0 7.0
2017-Apr-21 19:30N 59°47' E 005°30'0 0.0
2017-Apr-21 19:01N 59°47' E 005°30'5291.7
2017-Apr-21 19:00N 59°42' E 005°30'5 9.9 260 / 61013.9 3.6-1.0 6.9
2017-Apr-21 18:30N 59°47' E 005°30'0 0.0
2017-Apr-21 18:01N 59°47' E 005°30'5291.7
2017-Apr-21 18:00N 59°42' E 005°30'5 9.8 260 / 61013.7 3.5-1.0 7.0
2017-Apr-21 17:30N 59°47' E 005°30'0 0.0
2017-Apr-21 17:00N 59°47' E 005°30'5448.7
2017-Apr-21 17:00N 59°42' E 005°30'5 9.9 280 / 81013.2 4.8-1.0 6.9
2017-Apr-21 16:30N 59°47' E 005°30'0 0.0
2017-Apr-21 16:00N 59°47' E 005°30'5919.9
2017-Apr-21 16:00N 59°42' E 005°30'5 9.9 300 / 81012.4 4.4-2.1 6.9
2017-Apr-21 15:30N 59°47' E 005°30'3 5.4
2017-Apr-21 15:00N 59°49' E 005°33'2378.4
2017-Apr-21 15:00N 59°48' E 005°30'2 5.1 320 / 251011.8 4.7-2.7 7.1
2017-Apr-21 14:31N 59°50' E 005°33'2 4.7
2017-Apr-21 14:00N 59°48' E 005°30'2 5.0 320 / 211011.7 4.5-2.5 7.0
2017-Apr-21 13:30N 59°50' E 005°33'0 0.0
2017-Apr-21 13:00N 59°50' E 005°33'2180.1
2017-Apr-21 13:00N 59°48' E 005°30'2 5.0 310 / 291011.6 4.0-1.0 7.1
2017-Apr-21 12:30N 59°50' E 005°33'0 0.0
2017-Apr-21 12:00N 59°50' E 005°33'2441.5
2017-Apr-21 12:00N 59°48' E 005°30'2 5.0 300 / 231011.0 5.1-0.3 7.0
2017-Apr-21 11:30N 59°50' E 005°33'0 0.0
2017-Apr-21 11:00N 59°50' E 005°33'2232.3
2017-Apr-21 11:00N 59°48' E 005°30'2 4.9 290 / 211011.3 6.1-0.2 7.0
2017-Apr-21 10:29N 59°50' E 005°33'0 0.2
2017-Apr-21 10:00N 59°50' E 005°33'3154.4
2017-Apr-21 10:00N 59°48' E 005°30'2 5.0 280 / 161012.0 6.9 1.2 7.0
2017-Apr-21 09:30N 59°50' E 005°33'1 2.8
2017-Apr-21 09:00N 59°49' E 005°35'3260.5
2017-Apr-21 09:00N 59°48' E 005°30'3 6.0 270 / 171012.6 6.1-0.0 6.9
2017-Apr-21 08:31N 59°49' E 005°35'0 0.0
2017-Apr-21 08:00N 59°49' E 005°35'3267.0
2017-Apr-21 08:00N 59°48' E 005°30'3 5.9 270 / 171012.3 7.3 1.5 6.9
2017-Apr-21 07:30N 59°49' E 005°35'0 0.0
2017-Apr-21 07:00N 59°49' E 005°35'3267.1
2017-Apr-21 07:00N 59°48' E 005°30'3 5.9 270 / 161012.8 6.7 0.8 6.9
2017-Apr-21 06:30N 59°49' E 005°35'0 0.0
2017-Apr-21 06:00N 59°49' E 005°35'3244.0
2017-Apr-21 06:00N 59°48' E 005°30'3 6.8 260 / 211012.7 7.1 2.7 6.8
2017-Apr-21 05:30N 59°49' E 005°36'2 4.3
2017-Apr-21 05:00N 59°51' E 005°39'3234.7
2017-Apr-21 05:00N 59°48' E 005°36'611.5 260 / 141013.7 7.0 2.5 7.1
2017-Apr-21 04:31N 59°53' E 005°42'0 0.0
2017-Apr-21 04:00N 59°53' E 005°42'62229.2
2017-Apr-21 04:00N 59°48' E 005°36'611.4 270 / 161014.6 7.2 1.2 7.0
2017-Apr-21 03:30N 59°53' E 005°42'0 0.0
2017-Apr-21 03:00N 59°53' E 005°42'6514.4
2017-Apr-21 03:00N 59°48' E 005°36'611.4 250 / 81015.7 6.5 2.1 7.0
2017-Apr-21 02:30N 59°53' E 005°42'0 0.0
2017-Apr-21 02:00N 59°53' E 005°42'6573.2
2017-Apr-21 02:00N 59°48' E 005°36'611.2 250 / 171016.2 7.2 2.8 7.0
2017-Apr-21 01:30N 59°53' E 005°42'0 0.0
2017-Apr-21 01:00N 59°53' E 005°42'6401.3
2017-Apr-21 01:00N 59°48' E 005°36'816.4 210 / 141016.7 7.5 2.5 7.0
2017-Apr-21 00:30N 59°55' E 005°45'5 9.5
2017-Apr-21 00:00N 59°58' E 005°51'5420.3
2017-Apr-21 00:00N 59°54' E 005°48'918.8 200 / 171017.2 7.3 2.6 7.1
2017-Apr-20 23:31N 60°02' E 005°57'2 4.6
2017-Apr-20 23:00N 60°00' E 005°54'312196.6 220 / 81018.1 6.8 2.3 7.0
2017-Apr-20 22:59N 60°03' E 005°58'0 0.0
2017-Apr-20 22:30N 60°03' E 005°58'0 0.0
2017-Apr-20 22:01N 60°03' E 005°58'3203.3
2017-Apr-20 22:00N 60°00' E 005°54'3 7.0 190 / 121018.7 6.5 3.3 7.0
2017-Apr-20 21:31N 60°03' E 005°58'0 0.0
2017-Apr-20 21:00N 60°03' E 005°58'3210.3
2017-Apr-20 21:00N 60°00' E 005°54'   240 / 81018.7 6.3 3.1 7.0
Track history (hours):
 
Tides and Currents Weather Stations Pressure Air Temp Water Temp Dewpoint Dewpoint Depression Visibility Wind Speed Wind Dir Waves Ship Positions

Oceanographic research ship Dr Fridtjof Nansen (Norway)

Detailed information on ship capabilities available from University of Delaware's Ocean Information Center.

Last reported at 2017-Apr-30 20:30 UTC. Time now 2017-Apr-30 20:33 UTC.
Position N 60°20' E 004°45'.

Length 56.7 m; beam 12.5 m.

Type: Dredging. MMSI: 258523000.

Date/timePositionNaut miles runAvg speedWind from/ knotsBaromVisibWave heightAir tempDewpointWater temp
2017-Apr-30 20:30N 60°20' E 004°45'611.0
2017-Apr-30 20:00N 60°14' E 004°48'41185.6
2017-Apr-30 20:00N 60°12' E 004°42'510.2 160 / 41019.0 7.5 2.4 7.8
2017-Apr-30 19:30N 60°09' E 004°51'510.8
2017-Apr-30 19:01N 60°04' E 004°53'5290.1
2017-Apr-30 19:00N 60°00' E 004°48'4 8.8 200 / 61018.7 7.8 2.3 7.5
2017-Apr-30 18:30N 59°59' E 004°57'5 9.4
2017-Apr-30 18:00N 59°57' E 005°05'4268.6
2017-Apr-30 18:00N 59°54' E 005°00'4 7.2 280 / 21018.6 9.9 0.7 7.4
2017-Apr-30 17:30N 59°57' E 005°05'0 0.0
2017-Apr-30 17:00N 59°57' E 005°05'4412.3
2017-Apr-30 17:00N 59°54' E 005°00'4 7.3 310 / 41018.5 8.3 1.5 7.6
2017-Apr-30 16:31N 59°57' E 005°05'0 0.0
2017-Apr-30 16:00N 59°57' E 005°05'41161.9
2017-Apr-30 16:00N 59°54' E 005°00'4 7.2 240 / 41018.5 8.4 1.3 7.6
2017-Apr-30 15:30N 59°57' E 005°05'0 0.2
2017-Apr-30 15:00N 59°57' E 005°04'3593.6
2017-Apr-30 15:00N 59°54' E 005°00'3 7.1 200 / 41018.3 9.6 1.0 7.7
2017-Apr-30 14:30N 59°57' E 005°04'1019.7
2017-Apr-30 14:00N 59°48' E 004°54'4 9.0 210 / 61018.6 9.0 2.1 7.7
2017-Apr-30 13:30N 59°52' E 004°57'0 0.1
2017-Apr-30 13:00N 59°52' E 004°57'4799.1
2017-Apr-30 13:00N 59°48' E 004°54'4 8.9 210 / 121018.7 8.0 1.7 7.4
2017-Apr-30 12:30N 59°52' E 004°57'0 0.2
2017-Apr-30 12:00N 59°52' E 004°57'41283.7
2017-Apr-30 12:00N 59°48' E 004°54'4 8.5 200 / 81018.8 8.1 1.0 7.5
2017-Apr-30 11:30N 59°52' E 004°57'0 0.2
2017-Apr-30 11:00N 59°52' E 004°57'4460.8
2017-Apr-30 11:00N 59°48' E 004°54'4 8.1 190 / 121019.2 8.1 0.9 7.3
2017-Apr-30 10:30N 59°52' E 004°57'0 0.2
2017-Apr-30 10:00N 59°52' E 004°57'41167.6
2017-Apr-30 10:00N 59°48' E 004°54'4 7.7 160 / 101019.3 8.3-0.0 7.2
2017-Apr-30 09:30N 59°52' E 004°57'1 1.2
2017-Apr-30 09:00N 59°52' E 004°57'4495.0
2017-Apr-30 09:00N 59°48' E 004°54'5 9.6 150 / 121019.6 8.4-1.6 7.2
2017-Apr-30 08:31N 59°52' E 004°57'0 0.1
2017-Apr-30 08:00N 59°52' E 004°57'5394.6
2017-Apr-30 08:00N 59°48' E 004°54'4 9.2 140 / 121019.8 9.2-1.5 7.2
2017-Apr-30 07:30N 59°52' E 004°57'0 0.2
2017-Apr-30 07:00N 59°52' E 004°57'4525.6
2017-Apr-30 07:00N 59°48' E 004°54'4 8.9 120 / 121020.0 7.5-2.1 7.2
2017-Apr-30 06:30N 59°52' E 004°57'0 0.2
2017-Apr-30 06:00N 59°52' E 004°57'47932.5
2017-Apr-30 06:00N 59°48' E 004°54'4 8.6 120 / 141020.0 7.2-2.5 7.0
2017-Apr-30 05:30N 59°52' E 004°57'0 0.6
2017-Apr-30 05:01N 59°52' E 004°57'5270.0
2017-Apr-30 05:00N 59°48' E 004°54'4 8.8 120 / 141020.0 6.5-2.4 6.9
2017-Apr-30 04:30N 59°52' E 004°57'0 0.0
2017-Apr-30 04:00N 59°52' E 004°57'41562.5
2017-Apr-30 04:00N 59°48' E 004°54'4 8.6 120 / 141020.0 6.3-2.0 7.2
2017-Apr-30 03:29N 59°52' E 004°57'0 0.3
2017-Apr-30 03:00N 59°52' E 004°57'0 0.0
2017-Apr-30 02:30N 59°52' E 004°57'4 7.5
2017-Apr-30 02:00N 59°52' E 004°49'3 7.0
2017-Apr-30 01:30N 59°52' E 004°42'1 1.1
2017-Apr-30 01:00N 59°53' E 004°42'1 1.0
2017-Apr-30 00:30N 59°53' E 004°41'1 1.2
2017-Apr-30 00:00N 59°53' E 004°42'1 1.4
2017-Apr-29 23:30N 59°52' E 004°43'0 0.7
2017-Apr-29 23:00N 59°52' E 004°42'0 0.6
2017-Apr-29 22:30N 59°53' E 004°42'0 0.5
2017-Apr-29 22:00N 59°53' E 004°42'0 0.1
2017-Apr-29 21:30N 59°53' E 004°42'0 0.8
2017-Apr-29 21:00N 59°52' E 004°42'0 0.1
2017-Apr-29 20:30N 59°52' E 004°42'0 0.0
2017-Apr-29 20:00N 59°52' E 004°42'0 0.0
2017-Apr-29 19:30N 59°52' E 004°42'0 0.0
2017-Apr-29 19:00N 59°52' E 004°42'0 0.0
2017-Apr-29 18:30N 59°52' E 004°42'3 0.5
2017-Apr-29 11:44N 59°53' E 004°35'2 9.2
2017-Apr-29 11:30N 59°53' E 004°39'2 3.1
2017-Apr-29 11:00N 59°53' E 004°42'0 0.1
2017-Apr-29 10:30N 59°53' E 004°42'0 0.2
2017-Apr-29 10:00N 59°53' E 004°42'0 0.1
2017-Apr-29 09:30N 59°53' E 004°42'0 0.0
2017-Apr-29 09:00N 59°53' E 004°42'0 0.1
2017-Apr-29 08:30N 59°53' E 004°42'0 0.1
2017-Apr-29 08:00N 59°53' E 004°42'0 0.1
2017-Apr-29 07:30N 59°53' E 004°42'0 0.1
2017-Apr-29 07:00N 59°53' E 004°42'0 0.0
2017-Apr-29 06:29N 59°53' E 004°42'1 1.1
2017-Apr-29 06:00N 59°52' E 004°42'0 1.0
2017-Apr-29 05:30N 59°52' E 004°42'1 1.0
2017-Apr-29 05:00N 59°53' E 004°42'1 1.3
2017-Apr-29 04:30N 59°53' E 004°42'0 0.9
2017-Apr-29 04:00N 59°54' E 004°41'1 1.2
2017-Apr-29 03:30N 59°53' E 004°42'1 1.5
2017-Apr-29 03:00N 59°52' E 004°42'5370.2
2017-Apr-29 03:00N 59°48' E 004°36'510.2 120 / 81015.2 7.3 1.6 6.9
2017-Apr-29 02:30N 59°52' E 004°42'0 0.7
2017-Apr-29 02:01N 59°52' E 004°42'4243.9
2017-Apr-29 02:00N 59°48' E 004°42'510.0 100 / 101014.6 7.8-0.6 6.9
2017-Apr-29 01:31N 59°53' E 004°42'1 2.9
2017-Apr-29 01:00N 59°51' E 004°41'5 9.3
2017-Apr-29 00:30N 59°47' E 004°37'612.5
2017-Apr-29 00:00N 59°42' E 004°30'1313.4 090 / 101013.8 7.3 2.0 6.7
2017-Apr-28 23:00N 59°30' E 004°18'0 0.0 070 / 81013.5 7.5 0.3 6.9
2017-Apr-28 22:00N 59°30' E 004°18'6 6.0 080 / 41013.3 7.5 1.9 7.0
2017-Apr-28 21:00N 59°36' E 004°18'6 6.0 070 / 41013.2 7.5 0.8 6.9
2017-Apr-28 20:00N 59°30' E 004°18'3 3.0 060 / 61013.2 7.5 1.9 6.9
2017-Apr-28 19:00N 59°30' E 004°24'6 6.1 060 / 101012.8 8.0 0.1 7.0
2017-Apr-28 18:00N 59°30' E 004°36'0 0.0 060 / 101012.5 8.0-0.2 7.0
2017-Apr-28 17:00N 59°30' E 004°36'0 0.0 1012.2 7.5-0.9 6.9
2017-Apr-28 16:00N 59°30' E 004°36'0 0.0 350 / 121012.2 7.2 0.4 7.2
2017-Apr-28 15:00N 59°30' E 004°36'0 0.0 020 / 141012.3 7.6-1.8 7.2
2017-Apr-28 14:00N 59°30' E 004°36'437.6 020 / 141012.3 7.7-4.4 7.1
2017-Apr-28 13:53N 59°33' E 004°42'410.2
2017-Apr-28 13:31N 59°33' E 004°49'510.1
2017-Apr-28 13:00N 59°33' E 004°59'47723.0
2017-Apr-28 13:00N 59°30' E 004°54'917.8 050 / 161012.1 8.9-5.6 7.6
2017-Apr-28 12:30N 59°34' E 005°09'1 2.1
2017-Apr-28 12:00N 59°34' E 005°11'5581.4
2017-Apr-28 12:00N 59°30' E 005°06'510.3 050 / 101011.9 9.4-8.0 7.3
2017-Apr-28 11:30N 59°34' E 005°11'0 0.2
2017-Apr-28 11:00N 59°34' E 005°11'5440.4
2017-Apr-28 11:00N 59°30' E 005°06'510.2 050 / 141011.8 9.5-9.0 7.3
2017-Apr-28 10:30N 59°34' E 005°11'0 0.1
2017-Apr-28 10:00N 59°34' E 005°11'5884.1
2017-Apr-28 10:00N 59°30' E 005°06'5 9.9 050 / 141012.0 7.5-8.6 7.1
2017-Apr-28 09:30N 59°34' E 005°11'0 0.2
2017-Apr-28 09:00N 59°34' E 005°11'5433.6
2017-Apr-28 09:00N 59°30' E 005°06'5 9.6 060 / 121012.2 7.8-8.1 7.1
2017-Apr-28 08:30N 59°34' E 005°11'0 0.0
2017-Apr-28 08:01N 59°34' E 005°11'5285.5
2017-Apr-28 08:00N 59°30' E 005°06'5 9.6 060 / 121012.2 8.2-6.9 7.1
2017-Apr-28 07:30N 59°34' E 005°11'0 0.0
2017-Apr-28 07:00N 59°34' E 005°11'5778.6
2017-Apr-28 07:00N 59°30' E 005°06'5 9.6 060 / 161012.0 9.0-6.7 7.2
2017-Apr-28 06:30N 59°34' E 005°11'1 1.1
2017-Apr-28 06:00N 59°34' E 005°10'5411.6
2017-Apr-28 06:00N 59°30' E 005°06'4 9.0 050 / 161011.6 6.2-6.9 6.9
2017-Apr-28 05:30N 59°34' E 005°11'1 2.2
2017-Apr-28 05:00N 59°33' E 005°13'3258.7
2017-Apr-28 05:00N 59°30' E 005°12'3 6.7 020 / 121011.2 4.9-2.4 7.2
2017-Apr-28 04:30N 59°33' E 005°13'2 3.1
2017-Apr-28 04:00N 59°33' E 005°10'4641.9
2017-Apr-28 04:00N 59°30' E 005°06'4 7.9 100 / 81010.7 4.5-1.6 7.1
2017-Apr-28 03:30N 59°33' E 005°10'0 0.0
2017-Apr-28 03:00N 59°33' E 005°10'41177.1
2017-Apr-28 03:00N 59°30' E 005°06'4 8.0 100 / 161010.2 4.3-1.7 7.1
2017-Apr-28 02:30N 59°33' E 005°10'2 4.1
2017-Apr-28 02:00N 59°34' E 005°14'4759.1
2017-Apr-28 02:00N 59°30' E 005°12'4 9.0 080 / 191010.0 4.2-1.8 7.0
2017-Apr-28 01:30N 59°34' E 005°14'2 3.2
2017-Apr-28 01:00N 59°34' E 005°11'4396.3
2017-Apr-28 01:00N 59°30' E 005°06'4 9.0 070 / 101009.2 4.6-0.3 7.0
2017-Apr-28 00:30N 59°34' E 005°11'0 0.0
2017-Apr-28 00:00N 59°34' E 005°11'48080.9
2017-Apr-28 00:00N 59°30' E 005°06'4 9.0 020 / 81008.6 6.0 0.7 7.2
2017-Apr-27 23:30N 59°34' E 005°11'1 1.4
2017-Apr-27 23:00N 59°34' E 005°13'4321.2
2017-Apr-27 23:00N 59°30' E 005°12'4 8.1 330 / 61008.5 5.5 1.1 7.1
2017-Apr-27 22:30N 59°34' E 005°13'0 0.2
2017-Apr-27 22:00N 59°34' E 005°13'414926.3
2017-Apr-27 22:00N 59°30' E 005°12'4 7.5 320 / 121008.2 6.3 1.6 7.2
2017-Apr-27 21:31N 59°34' E 005°11'0 0.0
2017-Apr-27 21:01N 59°34' E 005°11'4263.7
2017-Apr-27 21:00N 59°30' E 005°06'611.7 330 / 81008.5 6.2 2.1 7.1
2017-Apr-27 20:30N 59°34' E 005°13'510.5
2017-Apr-27 20:00N 59°39' E 005°19'3237.1
2017-Apr-27 20:00N 59°36' E 005°18'815.6 300 / 81008.2 6.5 2.2 7.2
2017-Apr-27 19:30N 59°43' E 005°24'510.2
2017-Apr-27 19:00N 59°48' E 005°19'510.2
2017-Apr-27 18:30N 59°52' E 005°14'5 9.8
2017-Apr-27 18:00N 59°56' E 005°10'3550.2
2017-Apr-27 18:00N 59°54' E 005°06'715.1 310 / 121008.0 8.4 1.5 7.3
2017-Apr-27 17:30N 60°01' E 005°12'5 9.3
2017-Apr-27 17:01N 60°05' E 005°11'6339.9
2017-Apr-27 17:00N 60°00' E 005°06'1020.3 020 / 21007.7 7.9-0.3 7.0
2017-Apr-27 16:30N 60°10' E 005°09'4 7.6
2017-Apr-27 16:00N 60°08' E 005°02'3457.8
2017-Apr-27 16:00N 60°06' E 005°00'3 5.5 340 / 231007.5 7.0 1.9 7.0
2017-Apr-27 15:30N 60°08' E 005°02'0 0.0
2017-Apr-27 15:00N 60°08' E 005°02'3480.8
2017-Apr-27 15:00N 60°06' E 005°00'3 2.7 340 / 211007.7 6.6 1.9 7.2
2017-Apr-27 14:01N 60°08' E 005°02'3157.6
2017-Apr-27 14:00N 60°06' E 005°00'3 5.3 330 / 191007.6 6.5 1.8 7.1
2017-Apr-27 13:29N 60°08' E 005°02'0 0.1
2017-Apr-27 13:00N 60°08' E 005°02'3303.2
2017-Apr-27 13:00N 60°06' E 005°00'5 9.9 290 / 171007.5 6.1 1.2 6.9
2017-Apr-27 12:30N 60°09' E 005°08'0 0.2
2017-Apr-27 12:00N 60°09' E 005°08'3550.5
2017-Apr-27 12:00N 60°06' E 005°06'3 6.5 040 / 21007.3 6.0 1.0 6.9
2017-Apr-27 11:30N 60°09' E 005°08'0 0.0
2017-Apr-27 11:01N 60°09' E 005°08'3192.9
2017-Apr-27 11:00N 60°06' E 005°06'3 6.5 050 / 41007.0 5.4 0.3 6.9
2017-Apr-27 10:30N 60°09' E 005°08'0 0.0
2017-Apr-27 10:00N 60°09' E 005°08'31157.7
2017-Apr-27 10:00N 60°06' E 005°06'3 6.4 070 / 101006.7 4.7 0.3 6.7
2017-Apr-27 09:30N 60°09' E 005°08'0 0.0
2017-Apr-27 09:00N 60°09' E 005°08'311578.4
2017-Apr-27 09:00N 60°06' E 005°06'3 6.6 080 / 121006.2 4.4 0.9 6.8
2017-Apr-27 08:30N 60°09' E 005°08'0 0.6
2017-Apr-27 08:00N 60°09' E 005°07'3278.0
2017-Apr-27 08:00N 60°06' E 005°06'5 9.7 110 / 141005.5 3.7 0.9 6.6
2017-Apr-27 07:30N 60°08' E 004°58'4 8.6
2017-Apr-27 07:00N 60°07' E 004°49'1103.7
2017-Apr-27 07:00N 60°06' E 004°48'1 3.0 130 / 191004.3 3.3 1.2 6.3
2017-Apr-27 06:30N 60°07' E 004°49'0 0.0
2017-Apr-27 06:00N 60°07' E 004°49'1105.7
2017-Apr-27 06:00N 60°06' E 004°48'1 3.0 140 / 231003.7 3.1 1.4 6.3
2017-Apr-27 05:30N 60°07' E 004°49'0 0.0
2017-Apr-27 05:00N 60°07' E 004°49'1134.8
2017-Apr-27 05:00N 60°06' E 004°48'1 3.0 140 / 251003.6 2.9 1.3 6.4
2017-Apr-27 04:30N 60°07' E 004°49'0 0.0
2017-Apr-27 04:01N 60°07' E 004°49'186.9
2017-Apr-27 04:00N 60°06' E 004°48'2 3.2 150 / 251003.2 2.7 1.3 6.4
2017-Apr-27 03:30N 60°08' E 004°49'1 1.2
2017-Apr-27 03:00N 60°08' E 004°48'2137.5
2017-Apr-27 03:00N 60°06' E 004°48'2 4.6 160 / 291003.1 2.5 1.0 6.5
2017-Apr-27 02:30N 60°08' E 004°49'2 3.5
2017-Apr-27 02:00N 60°07' E 004°49'1304.7
2017-Apr-27 02:00N 60°06' E 004°48'3 6.6 170 / 231004.0 3.7 1.1 6.5
2017-Apr-27 01:30N 60°03' E 004°50'1 3.0
2017-Apr-27 01:00N 60°04' E 004°51'51406.6
2017-Apr-27 01:00N 60°00' E 004°48'612.4 180 / 251004.7 3.1 0.9 6.4
2017-Apr-27 00:30N 60°06' E 004°52'1 3.0
2017-Apr-27 00:00N 60°07' E 004°52'3182.6
2017-Apr-27 00:00N 60°06' E 004°48'3 5.5 190 / 211005.7 2.8 0.8 6.7
2017-Apr-26 23:30N 60°08' E 004°52'0 0.0
2017-Apr-26 23:01N 60°08' E 004°52'3166.0
2017-Apr-26 23:00N 60°06' E 004°48'4 9.3 200 / 171007.0 2.6 0.3 6.7
2017-Apr-26 22:30N 60°08' E 004°56'0 0.0
2017-Apr-26 22:00N 60°08' E 004°56'2267.2
2017-Apr-26 22:00N 60°06' E 004°54'4 7.7 240 / 141008.1 2.6-0.0 6.8
2017-Apr-26 21:30N 60°08' E 005°00'0 0.0
2017-Apr-26 21:00N 60°08' E 005°00'2868.3
2017-Apr-26 21:00N 60°06' E 005°00'2 4.8 270 / 141009.0 3.9-0.4 7.0
2017-Apr-26 20:30N 60°08' E 005°00'0 0.2
2017-Apr-26 20:01N 60°08' E 005°00'2144.5
2017-Apr-26 20:00N 60°06' E 005°00'4 8.8 300 / 101009.5 5.0-1.9 6.8
2017-Apr-26 19:30N 60°09' E 005°06'0 0.0
2017-Apr-26 19:00N 60°09' E 005°06'4309.3
2017-Apr-26 19:00N 60°06' E 005°00'4 8.6 320 / 101010.2 4.9-1.6 7.0
2017-Apr-26 18:30N 60°09' E 005°06'2 3.2
2017-Apr-26 18:00N 60°10' E 005°09'4667.1
2017-Apr-26 18:00N 60°06' E 005°06'4 8.6 330 / 141010.6 5.2-2.4 6.9
2017-Apr-26 17:30N 60°10' E 005°10'0 0.0
2017-Apr-26 17:01N 60°10' E 005°10'4256.0
2017-Apr-26 17:00N 60°06' E 005°06'4 8.8 320 / 161010.7 5.5-4.9 6.9
2017-Apr-26 16:31N 60°10' E 005°10'0 0.0
2017-Apr-26 16:01N 60°10' E 005°10'4251.9
2017-Apr-26 16:00N 60°06' E 005°06'4 8.8 320 / 191011.0 6.0-4.8 6.9
2017-Apr-26 15:31N 60°10' E 005°10'0 0.0
2017-Apr-26 15:00N 60°10' E 005°10'4374.8
2017-Apr-26 15:00N 60°06' E 005°06'4 8.7 320 / 191010.8 6.4-2.8 6.7
2017-Apr-26 14:30N 60°10' E 005°10'4 8.4
2017-Apr-26 14:00N 60°06' E 005°06'611.7 330 / 191010.8 6.8-2.3 6.8
2017-Apr-26 13:30N 60°11' E 005°12'0 0.0
2017-Apr-26 13:00N 60°11' E 005°12'6653.8
2017-Apr-26 13:00N 60°06' E 005°06'611.7 340 / 171011.1 6.0-1.7 6.8
2017-Apr-26 12:30N 60°11' E 005°12'0 0.0
2017-Apr-26 12:00N 60°11' E 005°12'61900.5
2017-Apr-26 12:00N 60°06' E 005°06'611.6 360 / 191011.0 6.0-3.7 6.6
2017-Apr-26 11:31N 60°11' E 005°11'1 1.7
2017-Apr-26 11:00N 60°12' E 005°11'61055.1
2017-Apr-26 11:00N 60°06' E 005°06'1122.2 340 / 191011.1 6.7-3.4 7.4
2017-Apr-26 10:30N 60°17' E 005°09'510.2
2017-Apr-26 10:00N 60°22' E 005°10'4313.0
2017-Apr-26 10:00N 60°18' E 005°06'817.0 330 / 171011.1 5.5-0.8 6.9
2017-Apr-26 09:30N 60°24' E 005°18'1 1.5
2017-Apr-26 09:00N 60°24' E 005°19'6965.6
2017-Apr-26 09:00N 60°18' E 005°18'611.1 330 / 121010.7 5.2-3.0 6.8
2017-Apr-26 08:28N 60°24' E 005°19'612.6
2017-Apr-26 08:00N 60°18' E 005°18'6189.7 330 / 141010.8 4.6-2.7 6.8
2017-Apr-26 07:58N 60°24' E 005°19'0 0.0
2017-Apr-26 07:28N 60°24' E 005°19'612.6
2017-Apr-26 07:00N 60°18' E 005°18'6186.4 330 / 141010.7 4.2-2.0 6.7
2017-Apr-26 06:58N 60°24' E 005°19'0 0.0
2017-Apr-26 06:28N 60°24' E 005°19'612.6
2017-Apr-26 06:00N 60°18' E 005°18'6184.7 320 / 101010.7 4.0-1.9 6.8
2017-Apr-26 05:58N 60°24' E 005°19'0 0.0
2017-Apr-26 05:28N 60°24' E 005°19'612.6
2017-Apr-26 05:00N 60°18' E 005°18'6181.6 320 / 101010.2 3.7-1.7 6.9
2017-Apr-26 04:58N 60°24' E 005°19'0 0.0
2017-Apr-26 04:25N 60°24' E 005°19'614.1
2017-Apr-26 04:00N 60°18' E 005°18'6180.0 310 / 101010.0 3.5-2.1 6.9
2017-Apr-26 03:58N 60°24' E 005°19'0 0.0
2017-Apr-26 03:31N 60°24' E 005°19'0 0.0
2017-Apr-26 03:01N 60°24' E 005°19'6348.3
2017-Apr-26 03:00N 60°18' E 005°18'612.2 320 / 81009.3 3.8-3.5 6.9
2017-Apr-26 02:30N 60°24' E 005°19'0 0.0
2017-Apr-26 02:00N 60°24' E 005°19'6360.1
2017-Apr-26 02:00N 60°18' E 005°18'612.2 330 / 81008.8 3.8-3.2 7.0
2017-Apr-26 01:30N 60°24' E 005°19'0 0.0
2017-Apr-26 01:00N 60°24' E 005°19'6372.7
2017-Apr-26 01:00N 60°18' E 005°18'612.2 330 / 81008.5 4.3-4.4 6.9
2017-Apr-26 00:30N 60°24' E 005°19'0 0.0
2017-Apr-26 00:00N 60°24' E 005°19'6386.3
2017-Apr-26 00:00N 60°18' E 005°18'612.2 330 / 81008.3 4.6-3.6 7.1
2017-Apr-25 23:30N 60°24' E 005°19'0 0.0
2017-Apr-25 23:00N 60°24' E 005°19'6393.4
2017-Apr-25 23:00N 60°18' E 005°18'612.2 300 / 101008.0 4.9-2.7 7.1
2017-Apr-25 22:30N 60°24' E 005°19'0 0.0
2017-Apr-25 22:00N 60°24' E 005°19'6408.5
2017-Apr-25 22:00N 60°18' E 005°18'612.1 330 / 101007.6 5.2-2.6 7.1
2017-Apr-25 21:30N 60°24' E 005°19'0 0.0
2017-Apr-25 21:00N 60°24' E 005°19'6424.9
2017-Apr-25 21:00N 60°18' E 005°18'612.1 330 / 101007.2 5.5-2.1 7.1
2017-Apr-25 20:30N 60°24' E 005°19'0 0.0
2017-Apr-25 20:00N 60°24' E 005°19'6433.5
2017-Apr-25 20:00N 60°18' E 005°18'612.1 330 / 121006.7 6.0-1.5 7.1
2017-Apr-25 19:30N 60°24' E 005°19'0 0.0
2017-Apr-25 19:00N 60°24' E 005°19'0 0.0
2017-Apr-25 18:30N 60°24' E 005°19'0 0.0
2017-Apr-25 18:00N 60°24' E 005°19'6472.1
2017-Apr-25 18:00N 60°18' E 005°18'612.1 330 / 161005.3 7.6-2.0 7.1
2017-Apr-25 17:30N 60°24' E 005°19'0 0.0
2017-Apr-25 17:00N 60°24' E 005°19'6482.8
2017-Apr-25 17:00N 60°18' E 005°18'612.1 330 / 141005.2 8.0-1.9 7.1
2017-Apr-25 16:30N 60°24' E 005°19'0 0.0
2017-Apr-25 16:00N 60°24' E 005°19'6505.8
2017-Apr-25 16:00N 60°18' E 005°18'612.1 340 / 121004.9 8.6-9.5 7.1
2017-Apr-25 15:30N 60°24' E 005°19'0 0.0
2017-Apr-25 15:00N 60°24' E 005°19'6531.1
2017-Apr-25 15:00N 60°18' E 005°18'6 6.0 010 / 141004.7 8.5-8.5 7.1
2017-Apr-25 14:00N 60°24' E 005°19'6544.7
2017-Apr-25 14:00N 60°18' E 005°18'612.1 360 / 121004.2 8.1-8.4 7.0
2017-Apr-25 13:30N 60°24' E 005°19'611.6
2017-Apr-25 13:00N 60°18' E 005°18'6148.6 300 / 141004.1 7.7-8.0 6.9
2017-Apr-25 12:57N 60°24' E 005°19'0 0.0
2017-Apr-25 12:30N 60°24' E 005°19'0 0.0
2017-Apr-25 12:00N 60°24' E 005°19'6607.0
2017-Apr-25 12:00N 60°18' E 005°18'612.0 340 / 101003.5 7.5-8.2 7.0
2017-Apr-25 11:30N 60°24' E 005°19'0 0.0
2017-Apr-25 11:00N 60°24' E 005°19'6624.8
2017-Apr-25 11:00N 60°18' E 005°18'612.0 330 / 101003.2 6.9-7.8 7.0
2017-Apr-25 10:30N 60°24' E 005°19'0 0.0
2017-Apr-25 10:00N 60°24' E 005°19'6643.8
2017-Apr-25 10:00N 60°18' E 005°18'612.0 320 / 101002.8 6.0-7.9 7.0
2017-Apr-25 09:30N 60°24' E 005°19'0 0.0
2017-Apr-25 09:00N 60°24' E 005°19'6685.3
2017-Apr-25 09:00N 60°18' E 005°18'612.0 300 / 81002.5 4.7-6.6 6.9
2017-Apr-25 08:30N 60°24' E 005°19'0 0.1
2017-Apr-25 08:00N 60°24' E 005°19'6729.8
2017-Apr-25 08:00N 60°18' E 005°18'611.9 090 / 81002.0 4.2-7.3 6.4
2017-Apr-25 07:30N 60°24' E 005°19'0 0.0
2017-Apr-25 07:00N 60°24' E 005°19'6755.9
2017-Apr-25 07:00N 60°18' E 005°18'611.9 1001.5 3.8-6.9 6.5
2017-Apr-25 06:30N 60°24' E 005°19'0 0.0
2017-Apr-25 06:00N 60°24' E 005°19'6814.0
2017-Apr-25 06:00N 60°18' E 005°18'611.9 310 / 81001.2 2.8-5.7 6.5
2017-Apr-25 05:30N 60°24' E 005°19'611.6
2017-Apr-25 05:00N 60°18' E 005°18'6135.7 310 / 61000.6 2.5-5.7 6.6
2017-Apr-25 04:57N 60°24' E 005°19'0 0.0
2017-Apr-25 04:27N 60°24' E 005°19'0 0.0
2017-Apr-25 04:00N 60°24' E 005°19'6919.3
2017-Apr-25 04:00N 60°18' E 005°18'611.9 320 / 81000.3 2.9-5.6 6.9
2017-Apr-25 03:30N 60°24' E 005°19'0 0.0
2017-Apr-25 03:00N 60°24' E 005°19'61007.9
2017-Apr-25 03:00N 60°18' E 005°18'611.9 090 / 81000.0 2.9-6.5 6.9
2017-Apr-25 02:30N 60°24' E 005°19'0 0.0
2017-Apr-25 02:00N 60°24' E 005°19'61058.2
2017-Apr-25 02:00N 60°18' E 005°18'611.9 080 / 4999.7 2.6-6.1 7.0
2017-Apr-25 01:30N 60°24' E 005°19'0 0.0
2017-Apr-25 01:00N 60°24' E 005°19'61175.8
2017-Apr-25 01:00N 60°18' E 005°18'611.9 220 / 2999.7 2.3-5.3 6.9
2017-Apr-25 00:30N 60°24' E 005°19'0 0.0
2017-Apr-25 00:00N 60°24' E 005°19'61322.8
2017-Apr-25 00:00N 60°18' E 005°18'611.8 010 / 6999.8 2.7-4.2 6.9
2017-Apr-24 23:30N 60°24' E 005°19'0 0.0
2017-Apr-24 23:00N 60°24' E 005°19'61511.7
2017-Apr-24 23:00N 60°18' E 005°18'611.8 310 / 4999.8 2.7-4.0 6.9
2017-Apr-24 22:30N 60°24' E 005°19'0 0.0
2017-Apr-24 22:00N 60°24' E 005°19'61628.1
2017-Apr-24 22:00N 60°18' E 005°18'611.8 310 / 61000.1 2.7-3.4 6.8
2017-Apr-24 21:30N 60°24' E 005°19'0 0.0
2017-Apr-24 21:00N 60°24' E 005°19'61924.1
2017-Apr-24 21:00N 60°18' E 005°18'611.8 310 / 61000.2 3.2-3.2 6.9
2017-Apr-24 20:30N 60°24' E 005°19'0 0.0
2017-Apr-24 20:00N 60°24' E 005°19'62349.2
2017-Apr-24 20:00N 60°18' E 005°18'611.8 310 / 81000.2 3.7-3.8 6.9
2017-Apr-24 19:30N 60°24' E 005°19'0 0.0
2017-Apr-24 19:00N 60°24' E 005°19'62645.6
2017-Apr-24 19:00N 60°18' E 005°18'611.8 310 / 121000.2 4.0-3.9 6.9
2017-Apr-24 18:30N 60°24' E 005°19'0 0.0
2017-Apr-24 18:00N 60°24' E 005°19'63523.8
2017-Apr-24 18:00N 60°18' E 005°18'611.8 320 / 161000.6 4.5-4.5 6.9
2017-Apr-24 17:30N 60°24' E 005°19'0 0.0
2017-Apr-24 17:00N 60°24' E 005°19'65291.2
2017-Apr-24 17:00N 60°18' E 005°18'611.8 320 / 141000.3 5.0-2.4 6.8
2017-Apr-24 16:30N 60°24' E 005°19'0 0.0
2017-Apr-24 16:00N 60°24' E 005°19'67047.8
2017-Apr-24 16:00N 60°18' E 005°18'611.8 320 / 141000.6 4.6-4.7 6.7
2017-Apr-24 15:30N 60°24' E 005°19'0 0.0
2017-Apr-24 15:00N 60°24' E 005°19'610571.5
2017-Apr-24 15:00N 60°18' E 005°18'612.1 310 / 141000.7 4.6-4.2 6.8
2017-Apr-24 14:30N 60°24' E 005°19'611.4
2017-Apr-24 14:00N 60°18' E 005°18'612.1 320 / 161001.0 4.4-5.0 6.7
2017-Apr-24 13:30N 60°24' E 005°19'0 0.0
2017-Apr-24 13:00N 60°24' E 005°19'0 0.1
2017-Apr-24 12:30N 60°24' E 005°19'4 7.3
2017-Apr-24 12:00N 60°23' E 005°12'4 8.2
2017-Apr-24 11:30N 60°19' E 005°12'5 9.6
2017-Apr-24 11:00N 60°14' E 005°09'510.0
2017-Apr-24 10:30N 60°10' E 005°15'510.3
2017-Apr-24 10:00N 60°07' E 005°22'4 8.7
2017-Apr-24 09:30N 60°04' E 005°28'1 2.8
2017-Apr-24 09:00N 60°02' E 005°28'0 0.0
2017-Apr-24 08:30N 60°02' E 005°28'1 2.5
2017-Apr-24 08:00N 60°03' E 005°28'4 8.1
2017-Apr-24 07:30N 60°06' E 005°22'3 5.5
2017-Apr-24 07:00N 60°05' E 005°16'0 0.0
2017-Apr-24 06:30N 60°05' E 005°16'3 5.7
2017-Apr-24 06:00N 60°03' E 005°19'5 9.7
2017-Apr-24 05:30N 59°58' E 005°23'510.1
2017-Apr-24 05:00N 59°55' E 005°30'2 3.7
2017-Apr-24 04:31N 59°53' E 005°32'1 1.6
2017-Apr-24 04:00N 59°53' E 005°32'3 5.6
2017-Apr-24 03:30N 59°50' E 005°33'1 2.9
2017-Apr-24 03:00N 59°48' E 005°34'1 2.5
2017-Apr-24 02:30N 59°47' E 005°34'2 4.1
2017-Apr-24 02:00N 59°45' E 005°33'2 4.3
2017-Apr-24 01:30N 59°44' E 005°30'2 4.2
2017-Apr-24 01:00N 59°42' E 005°27'2 4.1
2017-Apr-24 00:30N 59°41' E 005°24'2 4.3
2017-Apr-24 00:00N 59°39' E 005°21'2 4.4
2017-Apr-23 23:29N 59°37' E 005°18'2 4.5
2017-Apr-23 23:00N 59°36' E 005°16'3 6.0
2017-Apr-23 22:30N 59°33' E 005°11'0 0.1
2017-Apr-23 22:00N 59°33' E 005°11'0 0.0
2017-Apr-23 21:30N 59°33' E 005°11'0 0.0
2017-Apr-23 21:00N 59°33' E 005°11'2 3.9
2017-Apr-23 20:31N 59°35' E 005°14'611.6
2017-Apr-23 20:00N 59°40' E 005°20'611.3
2017-Apr-23 19:30N 59°43' E 005°29'510.7
2017-Apr-23 19:00N 59°48' E 005°34'1 2.8
2017-Apr-23 18:30N 59°50' E 005°33'0 0.6
2017-Apr-23 18:00N 59°50' E 005°33'0 0.1
2017-Apr-23 17:30N 59°50' E 005°33'0 0.0
2017-Apr-23 17:00N 59°50' E 005°33'2183.1
2017-Apr-23 17:00N 59°48' E 005°30'2 5.2 190 / 141011.5 3.7 0.4 7.0
2017-Apr-23 16:30N 59°50' E 005°33'0 0.0
2017-Apr-23 16:00N 59°50' E 005°33'2183.1
2017-Apr-23 16:00N 59°48' E 005°30'2 5.1 200 / 121012.5 4.2 0.2 6.9
2017-Apr-23 15:30N 59°50' E 005°33'0 0.0
2017-Apr-23 15:00N 59°50' E 005°33'2996.7
2017-Apr-23 15:00N 59°48' E 005°30'2 2.5 230 / 81013.6 2.0-0.1 6.8
2017-Apr-23 14:00N 59°50' E 005°33'2494.5
2017-Apr-23 14:00N 59°48' E 005°30'2 5.1 240 / 121014.2 3.1-0.4 6.9
2017-Apr-23 13:31N 59°50' E 005°33'0 0.0
2017-Apr-23 13:00N 59°50' E 005°33'2 3.3
2017-Apr-23 12:30N 59°51' E 005°32'2 3.9
2017-Apr-23 12:00N 59°53' E 005°32'5675.1
2017-Apr-23 12:00N 59°48' E 005°30'510.9 310 / 101015.6 3.6-1.0 7.0
2017-Apr-23 11:30N 59°53' E 005°32'510.9
2017-Apr-23 11:00N 59°48' E 005°30'59788.2 320 / 41015.7 3.0-0.5 7.0
2017-Apr-23 10:59N 59°53' E 005°32'0 0.0
2017-Apr-23 10:30N 59°53' E 005°32'0 0.0
2017-Apr-23 10:00N 59°53' E 005°32'5978.8
2017-Apr-23 10:00N 59°48' E 005°30'611.3 320 / 81016.3 1.2-0.7 7.0
2017-Apr-23 09:30N 59°53' E 005°32'0 0.1
2017-Apr-23 09:00N 59°53' E 005°32'6410.9
2017-Apr-23 09:00N 59°48' E 005°30'611.5 340 / 121016.2 3.7-1.7 7.0
2017-Apr-23 08:30N 59°53' E 005°32'0 0.0
2017-Apr-23 08:00N 59°53' E 005°32'6694.2
2017-Apr-23 08:00N 59°48' E 005°30'511.3 340 / 161016.1 2.3-1.1 6.9
2017-Apr-23 07:30N 59°53' E 005°32'510.6
2017-Apr-23 07:00N 59°48' E 005°30'519746.8 330 / 141015.8 3.2-0.8 7.0
2017-Apr-23 06:59N 59°53' E 005°32'0 0.0
2017-Apr-23 06:31N 59°53' E 005°32'0 0.0
2017-Apr-23 06:00N 59°53' E 005°32'5411.4
2017-Apr-23 06:00N 59°48' E 005°30'511.0 110 / 101016.4 1.5-1.7 6.9
2017-Apr-23 05:30N 59°53' E 005°32'1 1.9
2017-Apr-23 05:00N 59°52' E 005°32'4535.0
2017-Apr-23 05:00N 59°48' E 005°30'3 5.6 060 / 41016.2 1.8-1.6 6.8
2017-Apr-23 04:30N 59°50' E 005°33'3 5.7
2017-Apr-23 04:00N 59°48' E 005°34'6366.6
2017-Apr-23 04:00N 59°42' E 005°30'4 8.2 320 / 101016.4 2.2-1.8 6.8
2017-Apr-23 03:30N 59°45' E 005°35'0 0.0
2017-Apr-23 03:00N 59°45' E 005°35'4246.0
2017-Apr-23 03:00N 59°42' E 005°30'4 8.2 340 / 161016.7 2.3-1.8 6.9
2017-Apr-23 02:30N 59°45' E 005°35'0 0.0
2017-Apr-23 02:00N 59°45' E 005°35'4475.6
2017-Apr-23 02:00N 59°42' E 005°30'2 4.3 340 / 161016.6 2.2-1.4 6.9
2017-Apr-23 01:30N 59°44' E 005°30'5 9.3
2017-Apr-23 01:00N 59°41' E 005°23'62483.1
2017-Apr-23 01:00N 59°36' E 005°18'1 2.4 350 / 101017.1 1.3-0.9 6.8
2017-Apr-23 00:30N 59°37' E 005°17'1 2.1
2017-Apr-23 00:00N 59°36' E 005°16'2160.7
2017-Apr-23 00:00N 59°36' E 005°12'2 4.4 330 / 211017.6 1.1-1.5 6.9
2017-Apr-22 23:30N 59°36' E 005°16'0 0.0
2017-Apr-22 23:00N 59°36' E 005°16'2262.7
2017-Apr-22 23:00N 59°36' E 005°12'2 4.5 340 / 171017.7 3.1-1.5 7.0
2017-Apr-22 22:30N 59°36' E 005°16'3 6.8
2017-Apr-22 22:00N 59°34' E 005°12'5354.6
2017-Apr-22 22:00N 59°30' E 005°06'714.3 330 / 251017.1 4.5-1.7 7.1
2017-Apr-22 21:30N 59°35' E 005°15'510.1
2017-Apr-22 21:00N 59°39' E 005°21'4345.1
2017-Apr-22 21:00N 59°36' E 005°18'918.1 320 / 161017.2 4.5-1.7 7.0
2017-Apr-22 20:30N 59°43' E 005°28'510.2
2017-Apr-22 20:00N 59°48' E 005°33'6727.3
2017-Apr-22 20:00N 59°42' E 005°30'1121.7 330 / 171016.7 3.9-0.3 7.0
2017-Apr-22 19:30N 59°53' E 005°32'4 8.9
2017-Apr-22 19:00N 59°56' E 005°28'3195.5
2017-Apr-22 19:00N 59°54' E 005°24'3 6.4 320 / 191016.8 3.2 0.2 6.8
2017-Apr-22 18:29N 59°56' E 005°28'0 0.0
2017-Apr-22 18:00N 59°56' E 005°28'3195.6
2017-Apr-22 18:00N 59°54' E 005°24'3 6.5 320 / 211016.3 4.4 0.9 7.0
2017-Apr-22 17:30N 59°56' E 005°28'0 0.0
2017-Apr-22 17:00N 59°56' E 005°28'3397.9
2017-Apr-22 17:00N 59°54' E 005°24'3 6.4 310 / 171016.4 4.9 0.2 7.0
2017-Apr-22 16:30N 59°56' E 005°28'0 0.0
2017-Apr-22 15:59N 59°56' E 005°28'0 0.0
2017-Apr-22 15:29N 59°56' E 005°28'0 0.0
2017-Apr-22 15:00N 59°56' E 005°28'3412.3
2017-Apr-22 15:00N 59°54' E 005°24'3 6.5 310 / 161016.2 5.5 0.5 7.0
2017-Apr-22 14:30N 59°56' E 005°28'3 6.4
2017-Apr-22 14:00N 59°54' E 005°24'5 9.7 320 / 211016.1 6.2 0.1 6.9
2017-Apr-22 13:30N 59°52' E 005°33'2 4.0
2017-Apr-22 13:00N 59°50' E 005°33'2465.5
2017-Apr-22 13:00N 59°48' E 005°30'2 5.1 020 / 81016.5 6.3-0.6 7.0
2017-Apr-22 12:30N 59°50' E 005°33'0 0.0
2017-Apr-22 12:00N 59°50' E 005°33'2983.0
2017-Apr-22 12:00N 59°48' E 005°30'2 5.1 360 / 161017.0 4.2 0.2 6.9
2017-Apr-22 11:30N 59°50' E 005°33'0 0.0
2017-Apr-22 11:00N 59°50' E 005°33'2491.5
2017-Apr-22 11:00N 59°48' E 005°30'2 5.1 010 / 81016.5 5.5-0.6 6.8
2017-Apr-22 10:30N 59°50' E 005°33'0 0.0
2017-Apr-22 10:00N 59°50' E 005°33'2152.5
2017-Apr-22 10:00N 59°48' E 005°30'2 5.0 350 / 161016.3 6.5-2.1 6.9
2017-Apr-22 09:30N 59°50' E 005°33'0 0.0
2017-Apr-22 09:00N 59°50' E 005°33'2316.0
2017-Apr-22 09:00N 59°48' E 005°30'2 4.0 360 / 101016.2 6.5-0.7 6.9
2017-Apr-22 08:30N 59°47' E 005°34'2 3.3
2017-Apr-22 08:00N 59°47' E 005°30'52184.8
2017-Apr-22 08:00N 59°42' E 005°30'5 9.9 250 / 61016.0 8.0-2.1 7.0
2017-Apr-22 07:30N 59°47' E 005°30'0 0.0
2017-Apr-22 07:00N 59°47' E 005°30'5350.0
2017-Apr-22 07:00N 59°42' E 005°30'5 9.9 060 / 41015.7 7.2-1.5 6.9
2017-Apr-22 06:30N 59°47' E 005°30'0 0.0
2017-Apr-22 06:00N 59°47' E 005°30'5921.0
2017-Apr-22 06:00N 59°42' E 005°30'510.0 220 / 41015.1 6.4-0.7 6.8
2017-Apr-22 05:30N 59°47' E 005°30'0 0.0
2017-Apr-22 05:00N 59°47' E 005°30'5448.7
2017-Apr-22 05:00N 59°42' E 005°30'5 9.9 290 / 41014.5 4.9-0.3 6.9
2017-Apr-22 04:30N 59°47' E 005°30'0 0.0
2017-Apr-22 04:00N 59°47' E 005°30'0 0.0
2017-Apr-22 03:30N 59°47' E 005°30'0 0.0
2017-Apr-22 03:01N 59°47' E 005°30'5291.7
2017-Apr-22 03:00N 59°42' E 005°30'5 9.8 190 / 21012.6 4.0 1.4 6.9
2017-Apr-22 02:30N 59°47' E 005°30'0 0.0
2017-Apr-22 02:00N 59°47' E 005°30'5459.9
2017-Apr-22 02:00N 59°42' E 005°30'5 9.9 260 / 41012.7 4.2 1.0 6.9
2017-Apr-22 01:30N 59°47' E 005°30'0 0.0
2017-Apr-22 01:00N 59°47' E 005°30'52184.7
2017-Apr-22 01:00N 59°42' E 005°30'5 9.8 270 / 61013.1 4.7 1.1 7.0
2017-Apr-22 00:30N 59°47' E 005°30'0 0.0
2017-Apr-22 00:01N 59°47' E 005°30'5291.7
2017-Apr-22 00:00N 59°42' E 005°30'510.1 250 / 41013.5 5.0 0.9 6.9
2017-Apr-21 23:31N 59°47' E 005°30'0 0.0
2017-Apr-21 23:00N 59°47' E 005°30'5919.9
2017-Apr-21 23:00N 59°42' E 005°30'5 9.8 260 / 61013.7 3.6 0.5 6.8
2017-Apr-21 22:30N 59°47' E 005°30'0 0.0
2017-Apr-21 22:00N 59°47' E 005°30'5448.7
2017-Apr-21 22:00N 59°42' E 005°30'510.0 250 / 41013.8 2.7 0.2 6.9
2017-Apr-21 21:30N 59°47' E 005°30'0 0.0
2017-Apr-21 21:00N 59°47' E 005°30'51750.0
2017-Apr-21 21:00N 59°42' E 005°30'5 9.7 260 / 21014.3 3.3-0.6 6.9
2017-Apr-21 20:30N 59°47' E 005°30'0 0.0
2017-Apr-21 20:00N 59°47' E 005°30'5357.1
2017-Apr-21 20:00N 59°42' E 005°30'510.0 250 / 21014.3 3.6-1.0 7.0
2017-Apr-21 19:30N 59°47' E 005°30'0 0.0
2017-Apr-21 19:01N 59°47' E 005°30'5291.7
2017-Apr-21 19:00N 59°42' E 005°30'5 9.9 260 / 61013.9 3.6-1.0 6.9
2017-Apr-21 18:30N 59°47' E 005°30'0 0.0
2017-Apr-21 18:01N 59°47' E 005°30'5291.7
2017-Apr-21 18:00N 59°42' E 005°30'5 9.8 260 / 61013.7 3.5-1.0 7.0
2017-Apr-21 17:30N 59°47' E 005°30'0 0.0
2017-Apr-21 17:00N 59°47' E 005°30'5448.7
2017-Apr-21 17:00N 59°42' E 005°30'5 9.9 280 / 81013.2 4.8-1.0 6.9
2017-Apr-21 16:30N 59°47' E 005°30'0 0.0
2017-Apr-21 16:00N 59°47' E 005°30'5919.9
2017-Apr-21 16:00N 59°42' E 005°30'5 9.9 300 / 81012.4 4.4-2.1 6.9
2017-Apr-21 15:30N 59°47' E 005°30'3 5.4
2017-Apr-21 15:00N 59°49' E 005°33'2378.4
2017-Apr-21 15:00N 59°48' E 005°30'2 5.1 320 / 251011.8 4.7-2.7 7.1
2017-Apr-21 14:31N 59°50' E 005°33'2 4.7
2017-Apr-21 14:00N 59°48' E 005°30'2 5.0 320 / 211011.7 4.5-2.5 7.0
2017-Apr-21 13:30N 59°50' E 005°33'0 0.0
2017-Apr-21 13:00N 59°50' E 005°33'2180.1
2017-Apr-21 13:00N 59°48' E 005°30'2 5.0 310 / 291011.6 4.0-1.0 7.1
2017-Apr-21 12:30N 59°50' E 005°33'0 0.0
2017-Apr-21 12:00N 59°50' E 005°33'2441.5
2017-Apr-21 12:00N 59°48' E 005°30'2 5.0 300 / 231011.0 5.1-0.3 7.0
2017-Apr-21 11:30N 59°50' E 005°33'0 0.0
2017-Apr-21 11:00N 59°50' E 005°33'2232.3
2017-Apr-21 11:00N 59°48' E 005°30'2 4.9 290 / 211011.3 6.1-0.2 7.0
2017-Apr-21 10:29N 59°50' E 005°33'0 0.2
2017-Apr-21 10:00N 59°50' E 005°33'3154.4
2017-Apr-21 10:00N 59°48' E 005°30'2 5.0 280 / 161012.0 6.9 1.2 7.0
2017-Apr-21 09:30N 59°50' E 005°33'1 2.8
2017-Apr-21 09:00N 59°49' E 005°35'3260.5
2017-Apr-21 09:00N 59°48' E 005°30'3 6.0 270 / 171012.6 6.1-0.0 6.9
2017-Apr-21 08:31N 59°49' E 005°35'0 0.0
2017-Apr-21 08:00N 59°49' E 005°35'3267.0
2017-Apr-21 08:00N 59°48' E 005°30'3 5.9 270 / 171012.3 7.3 1.5 6.9
2017-Apr-21 07:30N 59°49' E 005°35'0 0.0
2017-Apr-21 07:00N 59°49' E 005°35'3267.1
2017-Apr-21 07:00N 59°48' E 005°30'3 5.9 270 / 161012.8 6.7 0.8 6.9
2017-Apr-21 06:30N 59°49' E 005°35'0 0.0
2017-Apr-21 06:00N 59°49' E 005°35'3244.0
2017-Apr-21 06:00N 59°48' E 005°30'3 6.8 260 / 211012.7 7.1 2.7 6.8
2017-Apr-21 05:30N 59°49' E 005°36'2 4.3
2017-Apr-21 05:00N 59°51' E 005°39'3234.7
2017-Apr-21 05:00N 59°48' E 005°36'611.5 260 / 141013.7 7.0 2.5 7.1
2017-Apr-21 04:31N 59°53' E 005°42'0 0.0
2017-Apr-21 04:00N 59°53' E 005°42'62229.2
2017-Apr-21 04:00N 59°48' E 005°36'611.4 270 / 161014.6 7.2 1.2 7.0
2017-Apr-21 03:30N 59°53' E 005°42'0 0.0
2017-Apr-21 03:00N 59°53' E 005°42'6514.4
2017-Apr-21 03:00N 59°48' E 005°36'611.4 250 / 81015.7 6.5 2.1 7.0
2017-Apr-21 02:30N 59°53' E 005°42'0 0.0
2017-Apr-21 02:00N 59°53' E 005°42'6573.2
2017-Apr-21 02:00N 59°48' E 005°36'611.2 250 / 171016.2 7.2 2.8 7.0
2017-Apr-21 01:30N 59°53' E 005°42'0 0.0
2017-Apr-21 01:00N 59°53' E 005°42'6401.3
2017-Apr-21 01:00N 59°48' E 005°36'816.4 210 / 141016.7 7.5 2.5 7.0
2017-Apr-21 00:30N 59°55' E 005°45'5 9.5
2017-Apr-21 00:00N 59°58' E 005°51'5420.3
2017-Apr-21 00:00N 59°54' E 005°48'918.8 200 / 171017.2 7.3 2.6 7.1
2017-Apr-20 23:31N 60°02' E 005°57'2 4.6
2017-Apr-20 23:00N 60°00' E 005°54'312196.6 220 / 81018.1 6.8 2.3 7.0
2017-Apr-20 22:59N 60°03' E 005°58'0 0.0
2017-Apr-20 22:30N 60°03' E 005°58'0 0.0
2017-Apr-20 22:01N 60°03' E 005°58'3203.3
2017-Apr-20 22:00N 60°00' E 005°54'3 7.0 190 / 121018.7 6.5 3.3 7.0
2017-Apr-20 21:31N 60°03' E 005°58'0 0.0
2017-Apr-20 21:00N 60°03' E 005°58'3210.3
2017-Apr-20 21:00N 60°00' E 005°54'   240 / 81018.7 6.3 3.1 7.0

Dump ship's entire track history